<?xml version='1.0' encoding='UTF-8'?><gpx version="1.1" creator="JPX - https://github.com/jenetics/jpx" xmlns="http://www.topografix.com/GPX/1/1"><trk><trkseg><trkpt lat="39.3787834" lon="16.0929404"><ele>1156.0</ele><time>2026-04-12T10:15:10.545Z</time></trkpt><trkpt lat="39.3786892" lon="16.0929568"><ele>1156.0</ele><time>2026-04-12T10:15:43.545Z</time></trkpt><trkpt lat="39.3786469" lon="16.0928954"><ele>1156.0</ele><time>2026-04-12T10:15:48.545Z</time></trkpt><trkpt lat="39.3785885" lon="16.0928123"><ele>1156.0</ele><time>2026-04-12T10:15:52.545Z</time></trkpt><trkpt lat="39.3785884" lon="16.0927222"><ele>1156.0</ele><time>2026-04-12T10:15:55.545Z</time></trkpt><trkpt lat="39.3785963" lon="16.0926191"><ele>1156.0</ele><time>2026-04-12T10:15:58.545Z</time></trkpt><trkpt lat="39.3785803" lon="16.0925269"><ele>1153.5</ele><time>2026-04-12T10:16:01.545Z</time></trkpt><trkpt lat="39.378593" lon="16.0924101"><ele>1151.0</ele><time>2026-04-12T10:16:04.545Z</time></trkpt><trkpt lat="39.3785874" lon="16.092297"><ele>1148.5</ele><time>2026-04-12T10:16:07.545Z</time></trkpt><trkpt lat="39.3785645" lon="16.0922157"><ele>1146.0</ele><time>2026-04-12T10:16:09.544Z</time></trkpt><trkpt lat="39.3785162" lon="16.0921428"><ele>1143.5</ele><time>2026-04-12T10:16:12.545Z</time></trkpt><trkpt lat="39.3784688" lon="16.0920649"><ele>1141.0</ele><time>2026-04-12T10:16:15.545Z</time></trkpt><trkpt lat="39.3784252" lon="16.0919948"><ele>1141.0</ele><time>2026-04-12T10:16:18.545Z</time></trkpt><trkpt lat="39.3783631" lon="16.0919199"><ele>1141.0</ele><time>2026-04-12T10:16:21.545Z</time></trkpt><trkpt lat="39.3783048" lon="16.0918654"><ele>1141.0</ele><time>2026-04-12T10:16:23.545Z</time></trkpt><trkpt lat="39.3782418" lon="16.091802"><ele>1141.0</ele><time>2026-04-12T10:16:25.545Z</time></trkpt><trkpt lat="39.3781759" lon="16.0917347"><ele>1141.0</ele><time>2026-04-12T10:16:27.545Z</time></trkpt><trkpt lat="39.378123" lon="16.0916803"><ele>1141.0</ele><time>2026-04-12T10:16:29.545Z</time></trkpt><trkpt lat="39.3780647" lon="16.0916221"><ele>1137.8333333333333</ele><time>2026-04-12T10:16:31.545Z</time></trkpt><trkpt lat="39.3779995" lon="16.0915423"><ele>1134.6666666666665</ele><time>2026-04-12T10:16:34.545Z</time></trkpt><trkpt lat="39.377952" lon="16.0914872"><ele>1131.5</ele><time>2026-04-12T10:16:36.545Z</time></trkpt><trkpt lat="39.3778793" lon="16.0914275"><ele>1128.3333333333333</ele><time>2026-04-12T10:16:39.545Z</time></trkpt><trkpt lat="39.3777953" lon="16.0913846"><ele>1125.1666666666667</ele><time>2026-04-12T10:16:42.545Z</time></trkpt><trkpt lat="39.3777228" lon="16.0913457"><ele>1122.0</ele><time>2026-04-12T10:16:45.545Z</time></trkpt><trkpt lat="39.377635" lon="16.0913155"><ele>1122.0</ele><time>2026-04-12T10:16:48.545Z</time></trkpt><trkpt lat="39.3775707" lon="16.091289"><ele>1122.0</ele><time>2026-04-12T10:16:50.546Z</time></trkpt><trkpt lat="39.3775021" lon="16.0912572"><ele>1122.0</ele><time>2026-04-12T10:16:52.545Z</time></trkpt><trkpt lat="39.3774331" lon="16.0912008"><ele>1122.0</ele><time>2026-04-12T10:16:56.545Z</time></trkpt><trkpt lat="39.3773542" lon="16.0911492"><ele>1122.0</ele><time>2026-04-12T10:16:59.546Z</time></trkpt><trkpt lat="39.377295" lon="16.0910894"><ele>1122.0</ele><time>2026-04-12T10:17:02.545Z</time></trkpt><trkpt lat="39.3772398" lon="16.091023"><ele>1122.4</ele><time>2026-04-12T10:17:05.546Z</time></trkpt><trkpt lat="39.3771801" lon="16.0909566"><ele>1122.8000000000002</ele><time>2026-04-12T10:17:09.566Z</time></trkpt><trkpt lat="39.3771109" lon="16.0908169"><ele>1123.2</ele><time>2026-04-12T10:17:12.544Z</time></trkpt><trkpt lat="39.3770602" lon="16.0907477"><ele>1123.6000000000001</ele><time>2026-04-12T10:17:17.545Z</time></trkpt><trkpt lat="39.3769937" lon="16.0906343"><ele>1124.0</ele><time>2026-04-12T10:17:19.545Z</time></trkpt><trkpt lat="39.3769406" lon="16.0905501"><ele>1121.3333333333335</ele><time>2026-04-12T10:17:21.546Z</time></trkpt><trkpt lat="39.3768856" lon="16.0904712"><ele>1118.6666666666667</ele><time>2026-04-12T10:17:23.545Z</time></trkpt><trkpt lat="39.3768629" lon="16.0903843"><ele>1116.0</ele><time>2026-04-12T10:17:26.545Z</time></trkpt><trkpt lat="39.3768517" lon="16.0902852"><ele>1113.3333333333333</ele><time>2026-04-12T10:17:29.545Z</time></trkpt><trkpt lat="39.3768481" lon="16.0902038"><ele>1110.6666666666665</ele><time>2026-04-12T10:17:31.545Z</time></trkpt><trkpt lat="39.3768354" lon="16.0901003"><ele>1108.0</ele><time>2026-04-12T10:17:34.546Z</time></trkpt><trkpt lat="39.3767684" lon="16.0900459"><ele>1108.0</ele><time>2026-04-12T10:17:37.545Z</time></trkpt><trkpt lat="39.3767152" lon="16.089975"><ele>1108.0</ele><time>2026-04-12T10:17:44.545Z</time></trkpt><trkpt lat="39.3767037" lon="16.0898925"><ele>1108.0</ele><time>2026-04-12T10:17:47.545Z</time></trkpt><trkpt lat="39.3766708" lon="16.089822"><ele>1108.0</ele><time>2026-04-12T10:17:50.544Z</time></trkpt><trkpt lat="39.3766591" lon="16.0897371"><ele>1108.0</ele><time>2026-04-12T10:17:54.545Z</time></trkpt><trkpt lat="39.3766132" lon="16.0896506"><ele>1108.0</ele><time>2026-04-12T10:18:32.546Z</time></trkpt><trkpt lat="39.3765769" lon="16.0895826"><ele>1108.0</ele><time>2026-04-12T10:18:36.545Z</time></trkpt><trkpt lat="39.3765218" lon="16.0894833"><ele>1104.8333333333333</ele><time>2026-04-12T10:18:39.546Z</time></trkpt><trkpt lat="39.3764572" lon="16.0894025"><ele>1101.6666666666665</ele><time>2026-04-12T10:18:42.545Z</time></trkpt><trkpt lat="39.3764403" lon="16.0893236"><ele>1098.5</ele><time>2026-04-12T10:18:45.545Z</time></trkpt><trkpt lat="39.3764143" lon="16.0892457"><ele>1095.3333333333333</ele><time>2026-04-12T10:18:48.545Z</time></trkpt><trkpt lat="39.3764216" lon="16.0891208"><ele>1092.1666666666667</ele><time>2026-04-12T10:18:51.546Z</time></trkpt><trkpt lat="39.376426" lon="16.0890319"><ele>1089.0</ele><time>2026-04-12T10:18:54.545Z</time></trkpt><trkpt lat="39.3764028" lon="16.0889451"><ele>1086.0000000000002</ele><time>2026-04-12T10:18:56.546Z</time></trkpt><trkpt lat="39.3763795" lon="16.088844"><ele>1083.0</ele><time>2026-04-12T10:18:58.545Z</time></trkpt><trkpt lat="39.3763622" lon="16.0887587"><ele>1080.0</ele><time>2026-04-12T10:19:00.545Z</time></trkpt><trkpt lat="39.3763785" lon="16.0886669"><ele>1077.0</ele><time>2026-04-12T10:19:03.545Z</time></trkpt><trkpt lat="39.376437" lon="16.0886153"><ele>1074.0</ele><time>2026-04-12T10:19:07.508Z</time></trkpt><trkpt lat="39.3764378" lon="16.0885232"><ele>1071.0000000000002</ele><time>2026-04-12T10:19:09.446Z</time></trkpt><trkpt lat="39.3764245" lon="16.0884412"><ele>1068.0</ele><time>2026-04-12T10:19:11.507Z</time></trkpt><trkpt lat="39.3764409" lon="16.0883399"><ele>1068.0</ele><time>2026-04-12T10:19:14.546Z</time></trkpt><trkpt lat="39.3765202" lon="16.0882866"><ele>1068.0</ele><time>2026-04-12T10:19:17.544Z</time></trkpt><trkpt lat="39.3766017" lon="16.0881785"><ele>1068.0</ele><time>2026-04-12T10:19:19.545Z</time></trkpt><trkpt lat="39.3765293" lon="16.0882153"><ele>1068.0</ele><time>2026-04-12T10:19:41.546Z</time></trkpt><trkpt lat="39.3764512" lon="16.0881843"><ele>1068.0</ele><time>2026-04-12T10:19:44.546Z</time></trkpt><trkpt lat="39.3763796" lon="16.088145"><ele>1068.0</ele><time>2026-04-12T10:19:47.546Z</time></trkpt><trkpt lat="39.3763182" lon="16.0881057"><ele>1063.857142857143</ele><time>2026-04-12T10:19:49.546Z</time></trkpt><trkpt lat="39.3762599" lon="16.0880687"><ele>1059.7142857142858</ele><time>2026-04-12T10:19:51.546Z</time></trkpt><trkpt lat="39.3761998" lon="16.0880235"><ele>1055.5714285714284</ele><time>2026-04-12T10:19:53.545Z</time></trkpt><trkpt lat="39.3761432" lon="16.0879858"><ele>1051.4285714285716</ele><time>2026-04-12T10:19:55.546Z</time></trkpt><trkpt lat="39.3760756" lon="16.0879665"><ele>1047.2857142857142</ele><time>2026-04-12T10:19:57.545Z</time></trkpt><trkpt lat="39.3759963" lon="16.0879595"><ele>1043.142857142857</ele><time>2026-04-12T10:19:59.546Z</time></trkpt><trkpt lat="39.3759245" lon="16.0879734"><ele>1039.0</ele><time>2026-04-12T10:20:01.546Z</time></trkpt><trkpt lat="39.3758521" lon="16.0879723"><ele>1039.0</ele><time>2026-04-12T10:20:04.546Z</time></trkpt><trkpt lat="39.3757598" lon="16.0879759"><ele>1039.0</ele><time>2026-04-12T10:20:06.546Z</time></trkpt><trkpt lat="39.3756525" lon="16.0879704"><ele>1039.0</ele><time>2026-04-12T10:20:08.546Z</time></trkpt><trkpt lat="39.3755558" lon="16.0879662"><ele>1039.0</ele><time>2026-04-12T10:20:10.546Z</time></trkpt><trkpt lat="39.3754741" lon="16.0879434"><ele>1039.0</ele><time>2026-04-12T10:20:12.546Z</time></trkpt><trkpt lat="39.3753914" lon="16.0879066"><ele>1038.5</ele><time>2026-04-12T10:20:14.546Z</time></trkpt><trkpt lat="39.3753112" lon="16.0878318"><ele>1038.0</ele><time>2026-04-12T10:20:16.547Z</time></trkpt><trkpt lat="39.3752655" lon="16.0877332"><ele>1037.5</ele><time>2026-04-12T10:20:18.546Z</time></trkpt><trkpt lat="39.3752391" lon="16.0876266"><ele>1037.0</ele><time>2026-04-12T10:20:20.547Z</time></trkpt><trkpt lat="39.3752442" lon="16.0875325"><ele>1036.5</ele><time>2026-04-12T10:20:22.546Z</time></trkpt><trkpt lat="39.375285" lon="16.0874242"><ele>1036.0</ele><time>2026-04-12T10:20:25.546Z</time></trkpt><trkpt lat="39.3753032" lon="16.0873249"><ele>1034.0</ele><time>2026-04-12T10:20:27.546Z</time></trkpt><trkpt lat="39.3752817" lon="16.087236"><ele>1032.0</ele><time>2026-04-12T10:20:41.547Z</time></trkpt><trkpt lat="39.3753202" lon="16.0871347"><ele>1030.0</ele><time>2026-04-12T10:20:51.546Z</time></trkpt><trkpt lat="39.3753503" lon="16.0870588"><ele>1028.0</ele><time>2026-04-12T10:20:55.546Z</time></trkpt><trkpt lat="39.3753915" lon="16.0869931"><ele>1026.0</ele><time>2026-04-12T10:20:58.546Z</time></trkpt><trkpt lat="39.3754421" lon="16.0868907"><ele>1024.0</ele><time>2026-04-12T10:21:01.546Z</time></trkpt><trkpt lat="39.3755001" lon="16.0868219"><ele>1022.4999999999999</ele><time>2026-04-12T10:21:04.546Z</time></trkpt><trkpt lat="39.3755432" lon="16.0867392"><ele>1021.0</ele><time>2026-04-12T10:21:07.545Z</time></trkpt><trkpt lat="39.3755715" lon="16.0866541"><ele>1019.5</ele><time>2026-04-12T10:21:10.546Z</time></trkpt><trkpt lat="39.3755729" lon="16.0865599"><ele>1018.0</ele><time>2026-04-12T10:21:13.546Z</time></trkpt><trkpt lat="39.3755791" lon="16.086433"><ele>1016.4999999999999</ele><time>2026-04-12T10:21:16.545Z</time></trkpt><trkpt lat="39.3755625" lon="16.0863263"><ele>1015.0</ele><time>2026-04-12T10:21:19.546Z</time></trkpt><trkpt lat="39.3755644" lon="16.086244"><ele>1010.9999999999999</ele><time>2026-04-12T10:21:21.546Z</time></trkpt><trkpt lat="39.375636" lon="16.0861198"><ele>1007.0</ele><time>2026-04-12T10:21:22.545Z</time></trkpt><trkpt lat="39.3757095" lon="16.0860458"><ele>1003.0</ele><time>2026-04-12T10:21:24.547Z</time></trkpt><trkpt lat="39.3757145" lon="16.0859484"><ele>999.0</ele><time>2026-04-12T10:21:27.547Z</time></trkpt><trkpt lat="39.3757074" lon="16.0858495"><ele>994.9999999999999</ele><time>2026-04-12T10:21:31.546Z</time></trkpt><trkpt lat="39.3756833" lon="16.0857545"><ele>991.0</ele><time>2026-04-12T10:21:34.546Z</time></trkpt><trkpt lat="39.3756921" lon="16.0856608"><ele>986.8333333333333</ele><time>2026-04-12T10:21:37.546Z</time></trkpt><trkpt lat="39.3757142" lon="16.085581"><ele>982.6666666666666</ele><time>2026-04-12T10:21:40.546Z</time></trkpt><trkpt lat="39.3757408" lon="16.0855028"><ele>978.5</ele><time>2026-04-12T10:21:45.546Z</time></trkpt><trkpt lat="39.3757838" lon="16.0854107"><ele>974.3333333333333</ele><time>2026-04-12T10:21:49.546Z</time></trkpt><trkpt lat="39.3758197" lon="16.0853197"><ele>970.1666666666666</ele><time>2026-04-12T10:21:52.547Z</time></trkpt><trkpt lat="39.3758635" lon="16.0852137"><ele>966.0</ele><time>2026-04-12T10:29:44.548Z</time></trkpt><trkpt lat="39.3759153" lon="16.0853025"><ele>966.0</ele><time>2026-04-12T10:29:49.548Z</time></trkpt><trkpt lat="39.3759434" lon="16.0853818"><ele>966.0</ele><time>2026-04-12T10:29:53.547Z</time></trkpt><trkpt lat="39.3759926" lon="16.0854479"><ele>966.0</ele><time>2026-04-12T10:29:56.547Z</time></trkpt><trkpt lat="39.3760301" lon="16.0855307"><ele>966.0</ele><time>2026-04-12T10:29:58.547Z</time></trkpt><trkpt lat="39.3760936" lon="16.0856125"><ele>966.0</ele><time>2026-04-12T10:30:00.548Z</time></trkpt><trkpt lat="39.3762017" lon="16.0856811"><ele>966.0</ele><time>2026-04-12T10:30:02.547Z</time></trkpt><trkpt lat="39.376315" lon="16.0857197"><ele>967.8</ele><time>2026-04-12T10:30:04.548Z</time></trkpt><trkpt lat="39.3764031" lon="16.0857221"><ele>969.5999999999999</ele><time>2026-04-12T10:30:05.547Z</time></trkpt><trkpt lat="39.376495" lon="16.0857291"><ele>971.4</ele><time>2026-04-12T10:30:06.548Z</time></trkpt><trkpt lat="39.3765798" lon="16.08574"><ele>973.2</ele><time>2026-04-12T10:30:07.547Z</time></trkpt><trkpt lat="39.3766646" lon="16.0857694"><ele>975.0</ele><time>2026-04-12T10:30:08.547Z</time></trkpt><trkpt lat="39.37676" lon="16.0858154"><ele>975.0</ele><time>2026-04-12T10:30:09.547Z</time></trkpt><trkpt lat="39.3768504" lon="16.0858605"><ele>975.0</ele><time>2026-04-12T10:30:10.547Z</time></trkpt><trkpt lat="39.3769652" lon="16.0859357"><ele>975.0</ele><time>2026-04-12T10:30:11.547Z</time></trkpt><trkpt lat="39.3770352" lon="16.0859604"><ele>975.0</ele><time>2026-04-12T10:30:12.547Z</time></trkpt><trkpt lat="39.3771082" lon="16.0859744"><ele>975.0</ele><time>2026-04-12T10:30:13.547Z</time></trkpt><trkpt lat="39.3771826" lon="16.0859867"><ele>975.0</ele><time>2026-04-12T10:30:14.547Z</time></trkpt><trkpt lat="39.3772427" lon="16.086051"><ele>972.0</ele><time>2026-04-12T10:30:15.547Z</time></trkpt><trkpt lat="39.3772949" lon="16.0861029"><ele>969.0</ele><time>2026-04-12T10:30:16.547Z</time></trkpt><trkpt lat="39.3773496" lon="16.0861658"><ele>966.0</ele><time>2026-04-12T10:30:17.547Z</time></trkpt><trkpt lat="39.3773924" lon="16.0862523"><ele>963.0</ele><time>2026-04-12T10:30:18.547Z</time></trkpt><trkpt lat="39.3774636" lon="16.0863148"><ele>960.0</ele><time>2026-04-12T10:30:19.546Z</time></trkpt><trkpt lat="39.3775031" lon="16.0864374"><ele>957.0</ele><time>2026-04-12T10:30:21.547Z</time></trkpt><trkpt lat="39.3775871" lon="16.0865218"><ele>957.0</ele><time>2026-04-12T10:30:23.548Z</time></trkpt><trkpt lat="39.3776398" lon="16.0865724"><ele>957.0</ele><time>2026-04-12T10:30:24.547Z</time></trkpt><trkpt lat="39.3777506" lon="16.0866507"><ele>957.0</ele><time>2026-04-12T10:30:26.547Z</time></trkpt><trkpt lat="39.3778328" lon="16.086653"><ele>957.0</ele><time>2026-04-12T10:30:29.547Z</time></trkpt><trkpt lat="39.3778716" lon="16.0865427"><ele>957.0</ele><time>2026-04-12T10:30:32.547Z</time></trkpt><trkpt lat="39.377932" lon="16.0865041"><ele>957.0</ele><time>2026-04-12T10:30:33.547Z</time></trkpt><trkpt lat="39.3780074" lon="16.0865047"><ele>955.1666666666666</ele><time>2026-04-12T10:30:35.547Z</time></trkpt><trkpt lat="39.3780735" lon="16.0864686"><ele>953.3333333333333</ele><time>2026-04-12T10:30:36.547Z</time></trkpt><trkpt lat="39.3781393" lon="16.0864391"><ele>951.5</ele><time>2026-04-12T10:30:37.547Z</time></trkpt><trkpt lat="39.3782195" lon="16.086402"><ele>949.6666666666666</ele><time>2026-04-12T10:30:38.547Z</time></trkpt><trkpt lat="39.3783598" lon="16.0863933"><ele>947.8333333333333</ele><time>2026-04-12T10:30:40.547Z</time></trkpt><trkpt lat="39.378424" lon="16.0863871"><ele>946.0</ele><time>2026-04-12T10:30:41.547Z</time></trkpt><trkpt lat="39.3785039" lon="16.0863649"><ele>946.0</ele><time>2026-04-12T10:30:42.548Z</time></trkpt><trkpt lat="39.3785603" lon="16.0863065"><ele>946.0</ele><time>2026-04-12T10:30:43.547Z</time></trkpt><trkpt lat="39.3786248" lon="16.0862523"><ele>946.0</ele><time>2026-04-12T10:30:44.547Z</time></trkpt><trkpt lat="39.3786965" lon="16.0861991"><ele>946.0</ele><time>2026-04-12T10:30:45.547Z</time></trkpt><trkpt lat="39.3787666" lon="16.0862393"><ele>946.0</ele><time>2026-04-12T10:30:46.548Z</time></trkpt><trkpt lat="39.3788305" lon="16.086242"><ele>946.0</ele><time>2026-04-12T10:30:47.547Z</time></trkpt><trkpt lat="39.3789" lon="16.0862629"><ele>946.0</ele><time>2026-04-12T10:30:48.547Z</time></trkpt><trkpt lat="39.3789739" lon="16.0862908"><ele>945.4999999999999</ele><time>2026-04-12T10:30:49.547Z</time></trkpt><trkpt lat="39.3790367" lon="16.0863166"><ele>945.0</ele><time>2026-04-12T10:30:50.548Z</time></trkpt><trkpt lat="39.3791475" lon="16.0863852"><ele>944.5</ele><time>2026-04-12T10:30:52.547Z</time></trkpt><trkpt lat="39.3792053" lon="16.0864331"><ele>944.0</ele><time>2026-04-12T10:30:53.547Z</time></trkpt><trkpt lat="39.3792641" lon="16.0864767"><ele>943.4999999999999</ele><time>2026-04-12T10:30:54.547Z</time></trkpt><trkpt lat="39.3793249" lon="16.0865243"><ele>943.0</ele><time>2026-04-12T10:30:55.547Z</time></trkpt><trkpt lat="39.3793884" lon="16.0865593"><ele>948.4</ele><time>2026-04-12T10:30:56.546Z</time></trkpt><trkpt lat="39.3794959" lon="16.0866063"><ele>953.8</ele><time>2026-04-12T10:30:58.547Z</time></trkpt><trkpt lat="39.3795903" lon="16.0866692"><ele>959.2</ele><time>2026-04-12T10:31:00.547Z</time></trkpt><trkpt lat="39.3796441" lon="16.0867174"><ele>964.6</ele><time>2026-04-12T10:31:01.547Z</time></trkpt><trkpt lat="39.379673" lon="16.0868091"><ele>970.0</ele><time>2026-04-12T10:31:03.547Z</time></trkpt><trkpt lat="39.3797183" lon="16.0869085"><ele>970.0</ele><time>2026-04-12T10:31:05.548Z</time></trkpt><trkpt lat="39.3797893" lon="16.08693"><ele>970.0</ele><time>2026-04-12T10:31:07.547Z</time></trkpt><trkpt lat="39.379876" lon="16.0869074"><ele>970.0</ele><time>2026-04-12T10:31:10.547Z</time></trkpt><trkpt lat="39.3799709" lon="16.0869313"><ele>970.0</ele><time>2026-04-12T10:31:12.547Z</time></trkpt><trkpt lat="39.3800559" lon="16.0869335"><ele>970.0</ele><time>2026-04-12T10:31:14.547Z</time></trkpt><trkpt lat="39.3801632" lon="16.0869114"><ele>969.9999999999999</ele><time>2026-04-12T10:31:15.547Z</time></trkpt><trkpt lat="39.3802331" lon="16.0869347"><ele>970.0</ele><time>2026-04-12T10:31:16.547Z</time></trkpt><trkpt lat="39.3803307" lon="16.0869401"><ele>970.0</ele><time>2026-04-12T10:31:18.547Z</time></trkpt><trkpt lat="39.3802903" lon="16.0868355"><ele>970.0</ele><time>2026-04-12T10:31:20.548Z</time></trkpt><trkpt lat="39.3802566" lon="16.0867494"><ele>969.9999999999999</ele><time>2026-04-12T10:31:22.547Z</time></trkpt><trkpt lat="39.3802708" lon="16.0866174"><ele>970.0</ele><time>2026-04-12T10:31:23.547Z</time></trkpt><trkpt lat="39.3802619" lon="16.0864979"><ele>966.5</ele><time>2026-04-12T10:31:24.548Z</time></trkpt><trkpt lat="39.3802276" lon="16.0863266"><ele>963.0</ele><time>2026-04-12T10:31:25.547Z</time></trkpt><trkpt lat="39.3802141" lon="16.0861832"><ele>959.5</ele><time>2026-04-12T10:31:26.547Z</time></trkpt><trkpt lat="39.3802184" lon="16.0860531"><ele>956.0</ele><time>2026-04-12T10:31:27.547Z</time></trkpt><trkpt lat="39.3802297" lon="16.085905"><ele>956.0000000000001</ele><time>2026-04-12T10:31:28.547Z</time></trkpt><trkpt lat="39.3802778" lon="16.0857803"><ele>956.0</ele><time>2026-04-12T10:31:29.547Z</time></trkpt><trkpt lat="39.3802865" lon="16.085664"><ele>956.0</ele><time>2026-04-12T10:31:30.547Z</time></trkpt><trkpt lat="39.3803057" lon="16.0855623"><ele>956.0</ele><time>2026-04-12T10:31:31.547Z</time></trkpt><trkpt lat="39.3803296" lon="16.085462"><ele>956.0000000000001</ele><time>2026-04-12T10:31:32.546Z</time></trkpt><trkpt lat="39.3803688" lon="16.0853791"><ele>956.0</ele><time>2026-04-12T10:31:33.546Z</time></trkpt><trkpt lat="39.3804201" lon="16.0853083"><ele>957.1666666666667</ele><time>2026-04-12T10:31:34.547Z</time></trkpt><trkpt lat="39.3804723" lon="16.0852371"><ele>958.3333333333334</ele><time>2026-04-12T10:31:35.547Z</time></trkpt><trkpt lat="39.3805189" lon="16.0851253"><ele>959.5</ele><time>2026-04-12T10:31:37.547Z</time></trkpt><trkpt lat="39.3805321" lon="16.0850398"><ele>960.6666666666667</ele><time>2026-04-12T10:31:38.547Z</time></trkpt><trkpt lat="39.3805277" lon="16.0849537"><ele>961.8333333333334</ele><time>2026-04-12T10:31:39.547Z</time></trkpt><trkpt lat="39.380535" lon="16.0848161"><ele>963.0</ele><time>2026-04-12T10:31:41.547Z</time></trkpt><trkpt lat="39.3805558" lon="16.0846682"><ele>963.0000000000001</ele><time>2026-04-12T10:31:43.548Z</time></trkpt><trkpt lat="39.3805648" lon="16.0845821"><ele>963.0</ele><time>2026-04-12T10:31:44.546Z</time></trkpt><trkpt lat="39.3805743" lon="16.0844955"><ele>963.0000000000001</ele><time>2026-04-12T10:31:45.547Z</time></trkpt><trkpt lat="39.3805956" lon="16.0844091"><ele>963.0000000000001</ele><time>2026-04-12T10:31:46.546Z</time></trkpt><trkpt lat="39.3806319" lon="16.0843395"><ele>963.0</ele><time>2026-04-12T10:31:47.546Z</time></trkpt><trkpt lat="39.3806451" lon="16.0842492"><ele>963.0000000000001</ele><time>2026-04-12T10:31:48.547Z</time></trkpt><trkpt lat="39.3806718" lon="16.0841636"><ele>963.0000000000001</ele><time>2026-04-12T10:31:49.547Z</time></trkpt><trkpt lat="39.3806861" lon="16.0840762"><ele>960.8333333333334</ele><time>2026-04-12T10:31:50.547Z</time></trkpt><trkpt lat="39.3806877" lon="16.0839258"><ele>958.6666666666667</ele><time>2026-04-12T10:31:52.547Z</time></trkpt><trkpt lat="39.380672" lon="16.0838467"><ele>956.5</ele><time>2026-04-12T10:31:53.548Z</time></trkpt><trkpt lat="39.3806501" lon="16.0837561"><ele>954.3333333333334</ele><time>2026-04-12T10:31:54.547Z</time></trkpt><trkpt lat="39.3806395" lon="16.0836619"><ele>952.1666666666667</ele><time>2026-04-12T10:31:55.547Z</time></trkpt><trkpt lat="39.3806334" lon="16.0835663"><ele>950.0</ele><time>2026-04-12T10:31:56.547Z</time></trkpt><trkpt lat="39.380647" lon="16.0834726"><ele>950.0</ele><time>2026-04-12T10:31:57.547Z</time></trkpt><trkpt lat="39.3806703" lon="16.0833769"><ele>950.0000000000001</ele><time>2026-04-12T10:31:58.547Z</time></trkpt><trkpt lat="39.3807007" lon="16.0832917"><ele>950.0</ele><time>2026-04-12T10:31:59.547Z</time></trkpt><trkpt lat="39.380745" lon="16.083206"><ele>950.0</ele><time>2026-04-12T10:32:00.547Z</time></trkpt><trkpt lat="39.3807814" lon="16.083123"><ele>950.0000000000001</ele><time>2026-04-12T10:32:01.547Z</time></trkpt><trkpt lat="39.3808103" lon="16.0830408"><ele>950.0</ele><time>2026-04-12T10:32:02.547Z</time></trkpt><trkpt lat="39.3808138" lon="16.0829428"><ele>950.0</ele><time>2026-04-12T10:32:03.547Z</time></trkpt><trkpt lat="39.3808178" lon="16.0828459"><ele>947.6666666666667</ele><time>2026-04-12T10:32:04.547Z</time></trkpt><trkpt lat="39.3808115" lon="16.0827336"><ele>945.3333333333334</ele><time>2026-04-12T10:32:05.547Z</time></trkpt><trkpt lat="39.3808399" lon="16.0826242"><ele>943.0</ele><time>2026-04-12T10:32:06.547Z</time></trkpt><trkpt lat="39.3808506" lon="16.0825187"><ele>940.6666666666667</ele><time>2026-04-12T10:32:07.547Z</time></trkpt><trkpt lat="39.3808693" lon="16.0824238"><ele>938.3333333333334</ele><time>2026-04-12T10:32:08.547Z</time></trkpt><trkpt lat="39.3808842" lon="16.0823445"><ele>936.0</ele><time>2026-04-12T10:32:09.547Z</time></trkpt><trkpt lat="39.3808767" lon="16.082244"><ele>933.1666666666666</ele><time>2026-04-12T10:32:10.547Z</time></trkpt><trkpt lat="39.3808993" lon="16.0821578"><ele>930.3333333333333</ele><time>2026-04-12T10:32:11.547Z</time></trkpt><trkpt lat="39.3809027" lon="16.0820472"><ele>927.5</ele><time>2026-04-12T10:32:12.548Z</time></trkpt><trkpt lat="39.3809013" lon="16.0819376"><ele>924.6666666666666</ele><time>2026-04-12T10:32:13.547Z</time></trkpt><trkpt lat="39.3809046" lon="16.0818386"><ele>921.8333333333333</ele><time>2026-04-12T10:32:14.547Z</time></trkpt><trkpt lat="39.3808911" lon="16.0817403"><ele>919.0</ele><time>2026-04-12T10:32:15.547Z</time></trkpt><trkpt lat="39.3808554" lon="16.0816199"><ele>915.6666666666666</ele><time>2026-04-12T10:32:16.547Z</time></trkpt><trkpt lat="39.3808698" lon="16.0815218"><ele>912.3333333333333</ele><time>2026-04-12T10:32:17.547Z</time></trkpt><trkpt lat="39.3809047" lon="16.0814428"><ele>909.0</ele><time>2026-04-12T10:32:18.547Z</time></trkpt><trkpt lat="39.3809805" lon="16.0813273"><ele>905.6666666666667</ele><time>2026-04-12T10:32:20.547Z</time></trkpt><trkpt lat="39.3810617" lon="16.0812564"><ele>902.3333333333334</ele><time>2026-04-12T10:32:22.546Z</time></trkpt><trkpt lat="39.3811376" lon="16.081228"><ele>899.0</ele><time>2026-04-12T10:32:24.547Z</time></trkpt><trkpt lat="39.3812083" lon="16.0812125"><ele>899.0000000000001</ele><time>2026-04-12T10:32:26.547Z</time></trkpt><trkpt lat="39.3812793" lon="16.0811907"><ele>899.0</ele><time>2026-04-12T10:32:28.547Z</time></trkpt><trkpt lat="39.3813496" lon="16.0811744"><ele>899.0</ele><time>2026-04-12T10:32:30.547Z</time></trkpt><trkpt lat="39.3814807" lon="16.081142"><ele>899.0</ele><time>2026-04-12T10:32:32.547Z</time></trkpt><trkpt lat="39.3815558" lon="16.0811289"><ele>899.0000000000001</ele><time>2026-04-12T10:32:33.547Z</time></trkpt><trkpt lat="39.3816385" lon="16.0811193"><ele>899.0</ele><time>2026-04-12T10:32:34.547Z</time></trkpt><trkpt lat="39.3817255" lon="16.0811191"><ele>901.8000000000001</ele><time>2026-04-12T10:32:35.547Z</time></trkpt><trkpt lat="39.3818343" lon="16.081127"><ele>904.6000000000001</ele><time>2026-04-12T10:32:36.547Z</time></trkpt><trkpt lat="39.3819388" lon="16.081154"><ele>907.4</ele><time>2026-04-12T10:32:37.547Z</time></trkpt><trkpt lat="39.3820295" lon="16.081177"><ele>910.2</ele><time>2026-04-12T10:32:38.547Z</time></trkpt><trkpt lat="39.3821081" lon="16.0811904"><ele>913.0</ele><time>2026-04-12T10:32:39.547Z</time></trkpt><trkpt lat="39.3821723" lon="16.0811786"><ele>914.2</ele><time>2026-04-12T10:32:40.547Z</time></trkpt><trkpt lat="39.3822373" lon="16.0811695"><ele>915.4</ele><time>2026-04-12T10:32:41.547Z</time></trkpt><trkpt lat="39.3823355" lon="16.0810663"><ele>916.6000000000001</ele><time>2026-04-12T10:32:43.547Z</time></trkpt><trkpt lat="39.3824478" lon="16.0809757"><ele>917.8000000000001</ele><time>2026-04-12T10:32:45.547Z</time></trkpt><trkpt lat="39.3825127" lon="16.0809541"><ele>919.0</ele><time>2026-04-12T10:32:46.547Z</time></trkpt><trkpt lat="39.3825886" lon="16.0809253"><ele>918.9999999999999</ele><time>2026-04-12T10:32:47.547Z</time></trkpt><trkpt lat="39.3826551" lon="16.0809088"><ele>919.0</ele><time>2026-04-12T10:32:48.547Z</time></trkpt><trkpt lat="39.3827195" lon="16.0808692"><ele>919.0</ele><time>2026-04-12T10:32:49.548Z</time></trkpt><trkpt lat="39.3828286" lon="16.0808056"><ele>919.0</ele><time>2026-04-12T10:32:51.548Z</time></trkpt><trkpt lat="39.3829224" lon="16.0807432"><ele>918.9999999999999</ele><time>2026-04-12T10:32:53.547Z</time></trkpt><trkpt lat="39.3829972" lon="16.0807299"><ele>919.0</ele><time>2026-04-12T10:32:55.547Z</time></trkpt><trkpt lat="39.3830633" lon="16.0807113"><ele>917.6</ele><time>2026-04-12T10:32:57.547Z</time></trkpt><trkpt lat="39.3830943" lon="16.0806175"><ele>916.2</ele><time>2026-04-12T10:33:00.547Z</time></trkpt><trkpt lat="39.3829724" lon="16.080565"><ele>914.8000000000001</ele><time>2026-04-12T10:33:03.547Z</time></trkpt><trkpt lat="39.3828691" lon="16.0805183"><ele>913.4000000000001</ele><time>2026-04-12T10:33:05.548Z</time></trkpt><trkpt lat="39.3827783" lon="16.0804615"><ele>912.0</ele><time>2026-04-12T10:33:07.547Z</time></trkpt><trkpt lat="39.3826955" lon="16.0803751"><ele>912.0</ele><time>2026-04-12T10:33:09.547Z</time></trkpt><trkpt lat="39.3826392" lon="16.0802616"><ele>912.0</ele><time>2026-04-12T10:33:11.548Z</time></trkpt><trkpt lat="39.3825733" lon="16.0801654"><ele>912.0</ele><time>2026-04-12T10:33:13.547Z</time></trkpt><trkpt lat="39.3825325" lon="16.0800834"><ele>912.0</ele><time>2026-04-12T10:33:14.548Z</time></trkpt><trkpt lat="39.3824922" lon="16.0800167"><ele>912.0</ele><time>2026-04-12T10:33:15.548Z</time></trkpt><trkpt lat="39.3824378" lon="16.0798825"><ele>914.5</ele><time>2026-04-12T10:33:17.549Z</time></trkpt><trkpt lat="39.3823959" lon="16.0798086"><ele>917.0</ele><time>2026-04-12T10:33:18.548Z</time></trkpt><trkpt lat="39.3823359" lon="16.07973"><ele>919.5</ele><time>2026-04-12T10:33:19.547Z</time></trkpt><trkpt lat="39.3822879" lon="16.0796583"><ele>922.0</ele><time>2026-04-12T10:33:20.548Z</time></trkpt><trkpt lat="39.3822395" lon="16.0795789"><ele>924.5</ele><time>2026-04-12T10:33:21.548Z</time></trkpt><trkpt lat="39.3821853" lon="16.0795112"><ele>927.0</ele><time>2026-04-12T10:33:22.548Z</time></trkpt><trkpt lat="39.3821255" lon="16.07943"><ele>919.1666666666666</ele><time>2026-04-12T10:33:23.548Z</time></trkpt><trkpt lat="39.3820723" lon="16.0793546"><ele>911.3333333333333</ele><time>2026-04-12T10:33:24.548Z</time></trkpt><trkpt lat="39.3820247" lon="16.0792679"><ele>903.5</ele><time>2026-04-12T10:33:25.548Z</time></trkpt><trkpt lat="39.3819746" lon="16.0791827"><ele>895.6666666666666</ele><time>2026-04-12T10:33:26.548Z</time></trkpt><trkpt lat="39.381919" lon="16.0790967"><ele>887.8333333333333</ele><time>2026-04-12T10:33:27.548Z</time></trkpt><trkpt lat="39.3818745" lon="16.0789967"><ele>880.0</ele><time>2026-04-12T10:33:28.548Z</time></trkpt><trkpt lat="39.3818395" lon="16.0788999"><ele>879.9999999999999</ele><time>2026-04-12T10:33:29.548Z</time></trkpt><trkpt lat="39.3818022" lon="16.078803"><ele>880.0</ele><time>2026-04-12T10:33:30.548Z</time></trkpt><trkpt lat="39.3817503" lon="16.0787141"><ele>880.0</ele><time>2026-04-12T10:33:31.549Z</time></trkpt><trkpt lat="39.3817339" lon="16.0786189"><ele>880.0</ele><time>2026-04-12T10:33:32.548Z</time></trkpt><trkpt lat="39.38169" lon="16.0785397"><ele>879.9999999999999</ele><time>2026-04-12T10:33:33.547Z</time></trkpt><trkpt lat="39.3816749" lon="16.0784347"><ele>880.0</ele><time>2026-04-12T10:33:34.548Z</time></trkpt><trkpt lat="39.3816587" lon="16.0783172"><ele>878.6</ele><time>2026-04-12T10:33:35.548Z</time></trkpt><trkpt lat="39.381639" lon="16.0782117"><ele>877.2</ele><time>2026-04-12T10:33:36.548Z</time></trkpt><trkpt lat="39.3816404" lon="16.0780846"><ele>875.8</ele><time>2026-04-12T10:33:37.548Z</time></trkpt><trkpt lat="39.3816409" lon="16.077948"><ele>874.4</ele><time>2026-04-12T10:33:38.548Z</time></trkpt><trkpt lat="39.3816528" lon="16.0778309"><ele>873.0</ele><time>2026-04-12T10:33:39.548Z</time></trkpt><trkpt lat="39.3816541" lon="16.0776983"><ele>873.0</ele><time>2026-04-12T10:33:40.548Z</time></trkpt><trkpt lat="39.3816682" lon="16.0775951"><ele>873.0</ele><time>2026-04-12T10:33:41.547Z</time></trkpt><trkpt lat="39.3816839" lon="16.0775013"><ele>873.0</ele><time>2026-04-12T10:33:42.548Z</time></trkpt><trkpt lat="39.3817003" lon="16.0774171"><ele>873.0</ele><time>2026-04-12T10:33:43.548Z</time></trkpt><trkpt lat="39.3817477" lon="16.0773437"><ele>873.0</ele><time>2026-04-12T10:33:44.548Z</time></trkpt><trkpt lat="39.3818303" lon="16.0772366"><ele>873.0</ele><time>2026-04-12T10:33:46.548Z</time></trkpt><trkpt lat="39.3819248" lon="16.0771316"><ele>871.6666666666666</ele><time>2026-04-12T10:33:48.548Z</time></trkpt><trkpt lat="39.3819681" lon="16.0770713"><ele>870.3333333333333</ele><time>2026-04-12T10:33:49.548Z</time></trkpt><trkpt lat="39.3820197" lon="16.0769571"><ele>869.0</ele><time>2026-04-12T10:33:51.548Z</time></trkpt><trkpt lat="39.3820548" lon="16.0768393"><ele>867.6666666666666</ele><time>2026-04-12T10:33:53.548Z</time></trkpt><trkpt lat="39.3820803" lon="16.0767441"><ele>866.3333333333333</ele><time>2026-04-12T10:33:54.548Z</time></trkpt><trkpt lat="39.3821021" lon="16.0766494"><ele>865.0</ele><time>2026-04-12T10:33:55.548Z</time></trkpt><trkpt lat="39.3821124" lon="16.0765333"><ele>864.8333333333333</ele><time>2026-04-12T10:33:56.548Z</time></trkpt><trkpt lat="39.3821465" lon="16.0764247"><ele>864.6666666666666</ele><time>2026-04-12T10:33:57.548Z</time></trkpt><trkpt lat="39.3821777" lon="16.0763401"><ele>864.5</ele><time>2026-04-12T10:33:58.548Z</time></trkpt><trkpt lat="39.3822506" lon="16.0762272"><ele>864.3333333333333</ele><time>2026-04-12T10:33:59.548Z</time></trkpt><trkpt lat="39.3823129" lon="16.0761545"><ele>864.1666666666666</ele><time>2026-04-12T10:34:00.547Z</time></trkpt><trkpt lat="39.3823556" lon="16.0760708"><ele>864.0</ele><time>2026-04-12T10:34:01.547Z</time></trkpt><trkpt lat="39.3824015" lon="16.0759868"><ele>864.0</ele><time>2026-04-12T10:34:02.548Z</time></trkpt><trkpt lat="39.3824568" lon="16.0759271"><ele>864.0</ele><time>2026-04-12T10:34:03.548Z</time></trkpt><trkpt lat="39.3825089" lon="16.0758572"><ele>864.0</ele><time>2026-04-12T10:34:04.547Z</time></trkpt><trkpt lat="39.3825549" lon="16.0757865"><ele>864.0</ele><time>2026-04-12T10:34:05.547Z</time></trkpt><trkpt lat="39.3826285" lon="16.0757121"><ele>864.0</ele><time>2026-04-12T10:34:06.548Z</time></trkpt><trkpt lat="39.3826994" lon="16.0756704"><ele>864.0</ele><time>2026-04-12T10:34:07.547Z</time></trkpt><trkpt lat="39.3827832" lon="16.0756526"><ele>858.6</ele><time>2026-04-12T10:34:08.548Z</time></trkpt><trkpt lat="39.3828486" lon="16.0756061"><ele>853.2</ele><time>2026-04-12T10:34:09.549Z</time></trkpt><trkpt lat="39.3829557" lon="16.0755284"><ele>847.8000000000001</ele><time>2026-04-12T10:34:11.549Z</time></trkpt><trkpt lat="39.3830648" lon="16.0754931"><ele>842.4000000000001</ele><time>2026-04-12T10:34:13.548Z</time></trkpt><trkpt lat="39.3831584" lon="16.0754954"><ele>837.0</ele><time>2026-04-12T10:34:15.547Z</time></trkpt><trkpt lat="39.3832515" lon="16.0755762"><ele>837.0</ele><time>2026-04-12T10:34:17.548Z</time></trkpt><trkpt lat="39.383311" lon="16.075674"><ele>837.0</ele><time>2026-04-12T10:34:18.548Z</time></trkpt><trkpt lat="39.3833975" lon="16.0757455"><ele>837.0</ele><time>2026-04-12T10:34:20.548Z</time></trkpt><trkpt lat="39.3835042" lon="16.0758374"><ele>837.0</ele><time>2026-04-12T10:34:22.547Z</time></trkpt><trkpt lat="39.3836095" lon="16.0759175"><ele>837.0</ele><time>2026-04-12T10:34:24.548Z</time></trkpt><trkpt lat="39.3836687" lon="16.0759524"><ele>842.4000000000001</ele><time>2026-04-12T10:34:25.548Z</time></trkpt><trkpt lat="39.3837351" lon="16.0759909"><ele>847.8000000000001</ele><time>2026-04-12T10:34:26.548Z</time></trkpt><trkpt lat="39.3838498" lon="16.0760246"><ele>853.2</ele><time>2026-04-12T10:34:28.548Z</time></trkpt><trkpt lat="39.383951" lon="16.0760475"><ele>858.6</ele><time>2026-04-12T10:34:30.548Z</time></trkpt><trkpt lat="39.3840439" lon="16.0760994"><ele>864.0</ele><time>2026-04-12T10:34:32.547Z</time></trkpt><trkpt lat="39.3841378" lon="16.0761399"><ele>864.6</ele><time>2026-04-12T10:34:34.547Z</time></trkpt><trkpt lat="39.3841858" lon="16.0760568"><ele>865.2</ele><time>2026-04-12T10:34:37.548Z</time></trkpt><trkpt lat="39.3842258" lon="16.0759724"><ele>865.8000000000001</ele><time>2026-04-12T10:34:39.548Z</time></trkpt><trkpt lat="39.3841866" lon="16.0758874"><ele>866.4000000000001</ele><time>2026-04-12T10:34:41.548Z</time></trkpt><trkpt lat="39.3841248" lon="16.0757747"><ele>867.0</ele><time>2026-04-12T10:34:42.548Z</time></trkpt><trkpt lat="39.3839674" lon="16.0756358"><ele>867.0</ele><time>2026-04-12T10:34:43.548Z</time></trkpt><trkpt lat="39.3839469" lon="16.0755498"><ele>867.0</ele><time>2026-04-12T10:34:44.549Z</time></trkpt><trkpt lat="39.3839674" lon="16.075442"><ele>867.0</ele><time>2026-04-12T10:34:45.548Z</time></trkpt><trkpt lat="39.3839791" lon="16.0753618"><ele>867.0</ele><time>2026-04-12T10:34:46.549Z</time></trkpt><trkpt lat="39.3840297" lon="16.0752272"><ele>867.0</ele><time>2026-04-12T10:34:47.549Z</time></trkpt><trkpt lat="39.3840866" lon="16.0751029"><ele>867.0</ele><time>2026-04-12T10:34:48.548Z</time></trkpt><trkpt lat="39.3841269" lon="16.0750131"><ele>866.1666666666666</ele><time>2026-04-12T10:34:49.548Z</time></trkpt><trkpt lat="39.3841461" lon="16.0749158"><ele>865.3333333333333</ele><time>2026-04-12T10:34:50.548Z</time></trkpt><trkpt lat="39.3841654" lon="16.0748235"><ele>864.5</ele><time>2026-04-12T10:34:51.547Z</time></trkpt><trkpt lat="39.3841717" lon="16.0747012"><ele>863.6666666666666</ele><time>2026-04-12T10:34:52.547Z</time></trkpt><trkpt lat="39.384178" lon="16.0745766"><ele>862.8333333333333</ele><time>2026-04-12T10:34:53.549Z</time></trkpt><trkpt lat="39.3841488" lon="16.0744915"><ele>862.0</ele><time>2026-04-12T10:34:54.548Z</time></trkpt><trkpt lat="39.3841472" lon="16.0743967"><ele>862.0</ele><time>2026-04-12T10:34:55.548Z</time></trkpt><trkpt lat="39.3841375" lon="16.0742694"><ele>862.0</ele><time>2026-04-12T10:34:57.547Z</time></trkpt><trkpt lat="39.3840816" lon="16.0741771"><ele>862.0</ele><time>2026-04-12T10:35:00.548Z</time></trkpt><trkpt lat="39.3839798" lon="16.0741229"><ele>862.0</ele><time>2026-04-12T10:35:02.547Z</time></trkpt><trkpt lat="39.3838674" lon="16.0740544"><ele>862.0</ele><time>2026-04-12T10:35:04.548Z</time></trkpt><trkpt lat="39.3837985" lon="16.074025"><ele>858.6666666666666</ele><time>2026-04-12T10:35:05.548Z</time></trkpt><trkpt lat="39.3837165" lon="16.0739914"><ele>855.3333333333333</ele><time>2026-04-12T10:35:06.548Z</time></trkpt><trkpt lat="39.3836193" lon="16.0739497"><ele>852.0</ele><time>2026-04-12T10:35:07.549Z</time></trkpt><trkpt lat="39.3835471" lon="16.0739229"><ele>848.6666666666667</ele><time>2026-04-12T10:35:08.548Z</time></trkpt><trkpt lat="39.3834533" lon="16.0738787"><ele>845.3333333333334</ele><time>2026-04-12T10:35:09.548Z</time></trkpt><trkpt lat="39.3833883" lon="16.0738693"><ele>842.0</ele><time>2026-04-12T10:35:10.547Z</time></trkpt><trkpt lat="39.3833153" lon="16.0738575"><ele>842.0000000000001</ele><time>2026-04-12T10:35:11.548Z</time></trkpt><trkpt lat="39.3832503" lon="16.073847"><ele>842.0</ele><time>2026-04-12T10:35:12.548Z</time></trkpt><trkpt lat="39.3831674" lon="16.0738321"><ele>842.0</ele><time>2026-04-12T10:35:13.547Z</time></trkpt><trkpt lat="39.3830919" lon="16.0737796"><ele>842.0</ele><time>2026-04-12T10:35:14.548Z</time></trkpt><trkpt lat="39.383009" lon="16.073738"><ele>842.0000000000001</ele><time>2026-04-12T10:35:15.548Z</time></trkpt><trkpt lat="39.3829201" lon="16.0736768"><ele>842.0</ele><time>2026-04-12T10:35:16.548Z</time></trkpt><trkpt lat="39.3828293" lon="16.0735717"><ele>837.1666666666667</ele><time>2026-04-12T10:35:17.548Z</time></trkpt><trkpt lat="39.3827596" lon="16.0734988"><ele>832.3333333333334</ele><time>2026-04-12T10:35:18.549Z</time></trkpt><trkpt lat="39.3826804" lon="16.0734321"><ele>827.5</ele><time>2026-04-12T10:35:19.548Z</time></trkpt><trkpt lat="39.3826105" lon="16.0733796"><ele>822.6666666666667</ele><time>2026-04-12T10:35:20.548Z</time></trkpt><trkpt lat="39.3825689" lon="16.0732996"><ele>817.8333333333334</ele><time>2026-04-12T10:35:21.548Z</time></trkpt><trkpt lat="39.3825067" lon="16.0732341"><ele>813.0</ele><time>2026-04-12T10:35:22.548Z</time></trkpt><trkpt lat="39.3824738" lon="16.0731554"><ele>813.0</ele><time>2026-04-12T10:35:23.548Z</time></trkpt><trkpt lat="39.3824051" lon="16.0730415"><ele>813.0</ele><time>2026-04-12T10:35:25.548Z</time></trkpt><trkpt lat="39.382337" lon="16.0729456"><ele>813.0</ele><time>2026-04-12T10:35:27.548Z</time></trkpt><trkpt lat="39.382317" lon="16.0728678"><ele>813.0</ele><time>2026-04-12T10:35:28.548Z</time></trkpt><trkpt lat="39.3823612" lon="16.072771"><ele>813.0</ele><time>2026-04-12T10:35:29.549Z</time></trkpt><trkpt lat="39.3823704" lon="16.0726589"><ele>813.0</ele><time>2026-04-12T10:35:30.549Z</time></trkpt><trkpt lat="39.3823874" lon="16.0725463"><ele>813.0</ele><time>2026-04-12T10:35:31.548Z</time></trkpt><trkpt lat="39.3823726" lon="16.0724508"><ele>813.0</ele><time>2026-04-12T10:35:32.548Z</time></trkpt><trkpt lat="39.3823374" lon="16.072354"><ele>813.0</ele><time>2026-04-12T10:35:33.548Z</time></trkpt><trkpt lat="39.3823256" lon="16.072242"><ele>813.0</ele><time>2026-04-12T10:35:34.548Z</time></trkpt><trkpt lat="39.3823712" lon="16.0721056"><ele>813.0</ele><time>2026-04-12T10:35:36.549Z</time></trkpt><trkpt lat="39.3823671" lon="16.0720014"><ele>810.3333333333334</ele><time>2026-04-12T10:35:37.549Z</time></trkpt><trkpt lat="39.382433" lon="16.0719805"><ele>807.6666666666667</ele><time>2026-04-12T10:35:39.548Z</time></trkpt><trkpt lat="39.382504" lon="16.0719162"><ele>805.0</ele><time>2026-04-12T10:35:41.549Z</time></trkpt><trkpt lat="39.3825364" lon="16.0718395"><ele>802.3333333333334</ele><time>2026-04-12T10:35:43.549Z</time></trkpt><trkpt lat="39.3825817" lon="16.0717571"><ele>799.6666666666667</ele><time>2026-04-12T10:35:45.548Z</time></trkpt><trkpt lat="39.3826338" lon="16.0716998"><ele>797.0</ele><time>2026-04-12T10:35:47.549Z</time></trkpt><trkpt lat="39.3827282" lon="16.0716333"><ele>795.0000000000001</ele><time>2026-04-12T10:35:49.548Z</time></trkpt><trkpt lat="39.3827766" lon="16.0715254"><ele>793.0</ele><time>2026-04-12T10:35:51.548Z</time></trkpt><trkpt lat="39.3828608" lon="16.0714604"><ele>791.0</ele><time>2026-04-12T10:35:53.548Z</time></trkpt><trkpt lat="39.3829146" lon="16.0713436"><ele>789.0</ele><time>2026-04-12T10:35:55.547Z</time></trkpt><trkpt lat="39.3829329" lon="16.0712655"><ele>787.0000000000001</ele><time>2026-04-12T10:35:56.548Z</time></trkpt><trkpt lat="39.3829364" lon="16.0711743"><ele>785.0</ele><time>2026-04-12T10:35:57.548Z</time></trkpt><trkpt lat="39.3828977" lon="16.0710955"><ele>785.0</ele><time>2026-04-12T10:35:58.548Z</time></trkpt><trkpt lat="39.3828693" lon="16.071015"><ele>785.0</ele><time>2026-04-12T10:35:59.548Z</time></trkpt><trkpt lat="39.3828449" lon="16.070934"><ele>785.0</ele><time>2026-04-12T10:36:00.547Z</time></trkpt><trkpt lat="39.3828018" lon="16.0708705"><ele>785.0</ele><time>2026-04-12T10:36:01.548Z</time></trkpt><trkpt lat="39.3827403" lon="16.0707923"><ele>785.0</ele><time>2026-04-12T10:36:02.549Z</time></trkpt><trkpt lat="39.3826974" lon="16.0707174"><ele>785.0</ele><time>2026-04-12T10:36:03.548Z</time></trkpt><trkpt lat="39.3826496" lon="16.07064"><ele>785.0</ele><time>2026-04-12T10:36:04.548Z</time></trkpt><trkpt lat="39.3826003" lon="16.070559"><ele>783.6</ele><time>2026-04-12T10:36:05.548Z</time></trkpt><trkpt lat="39.3825853" lon="16.0704317"><ele>782.2</ele><time>2026-04-12T10:36:06.549Z</time></trkpt><trkpt lat="39.3825505" lon="16.0702777"><ele>780.8</ele><time>2026-04-12T10:36:07.547Z</time></trkpt><trkpt lat="39.3825278" lon="16.0701559"><ele>779.4</ele><time>2026-04-12T10:36:08.548Z</time></trkpt><trkpt lat="39.3825035" lon="16.070051"><ele>778.0</ele><time>2026-04-12T10:36:09.548Z</time></trkpt><trkpt lat="39.3824623" lon="16.0699636"><ele>776.8333333333333</ele><time>2026-04-12T10:36:10.548Z</time></trkpt><trkpt lat="39.3824173" lon="16.0698733"><ele>775.6666666666666</ele><time>2026-04-12T10:36:11.549Z</time></trkpt><trkpt lat="39.3823651" lon="16.0697939"><ele>774.5</ele><time>2026-04-12T10:36:12.548Z</time></trkpt><trkpt lat="39.3822921" lon="16.0696893"><ele>773.3333333333333</ele><time>2026-04-12T10:36:13.547Z</time></trkpt><trkpt lat="39.382241" lon="16.0696378"><ele>772.1666666666666</ele><time>2026-04-12T10:36:14.547Z</time></trkpt><trkpt lat="39.3821784" lon="16.069557"><ele>771.0</ele><time>2026-04-12T10:36:15.548Z</time></trkpt><trkpt lat="39.3821128" lon="16.0694962"><ele>764.6666666666666</ele><time>2026-04-12T10:36:16.547Z</time></trkpt><trkpt lat="39.3820857" lon="16.06942"><ele>758.3333333333334</ele><time>2026-04-12T10:36:17.548Z</time></trkpt><trkpt lat="39.3820526" lon="16.0693328"><ele>752.0</ele><time>2026-04-12T10:36:18.548Z</time></trkpt><trkpt lat="39.3820082" lon="16.0692415"><ele>745.6666666666667</ele><time>2026-04-12T10:36:19.548Z</time></trkpt><trkpt lat="39.381964" lon="16.0691539"><ele>739.3333333333334</ele><time>2026-04-12T10:36:20.547Z</time></trkpt><trkpt lat="39.3819355" lon="16.0690229"><ele>733.0</ele><time>2026-04-12T10:36:21.548Z</time></trkpt><trkpt lat="39.3818988" lon="16.0689189"><ele>732.4</ele><time>2026-04-12T10:36:22.548Z</time></trkpt><trkpt lat="39.3818704" lon="16.0687893"><ele>731.8</ele><time>2026-04-12T10:36:23.548Z</time></trkpt><trkpt lat="39.3818473" lon="16.0686802"><ele>731.2</ele><time>2026-04-12T10:36:24.548Z</time></trkpt><trkpt lat="39.3818239" lon="16.0685577"><ele>730.6</ele><time>2026-04-12T10:36:25.549Z</time></trkpt><trkpt lat="39.3818191" lon="16.0684398"><ele>730.0</ele><time>2026-04-12T10:36:26.547Z</time></trkpt><trkpt lat="39.3818035" lon="16.0683162"><ele>730.8</ele><time>2026-04-12T10:36:27.548Z</time></trkpt><trkpt lat="39.3817787" lon="16.0682012"><ele>731.6</ele><time>2026-04-12T10:36:28.548Z</time></trkpt><trkpt lat="39.3817513" lon="16.0680417"><ele>732.4000000000001</ele><time>2026-04-12T10:36:29.548Z</time></trkpt><trkpt lat="39.3817339" lon="16.0678909"><ele>733.2</ele><time>2026-04-12T10:36:30.548Z</time></trkpt><trkpt lat="39.3816824" lon="16.0677654"><ele>734.0</ele><time>2026-04-12T10:36:31.548Z</time></trkpt><trkpt lat="39.3816339" lon="16.0676318"><ele>734.0</ele><time>2026-04-12T10:36:32.548Z</time></trkpt><trkpt lat="39.3815824" lon="16.0675077"><ele>734.0</ele><time>2026-04-12T10:36:33.548Z</time></trkpt><trkpt lat="39.3815238" lon="16.0673861"><ele>734.0</ele><time>2026-04-12T10:36:34.547Z</time></trkpt><trkpt lat="39.3814615" lon="16.0672654"><ele>734.0</ele><time>2026-04-12T10:36:35.548Z</time></trkpt><trkpt lat="39.3813975" lon="16.0671373"><ele>728.0</ele><time>2026-04-12T10:36:36.548Z</time></trkpt><trkpt lat="39.3813304" lon="16.0670162"><ele>722.0</ele><time>2026-04-12T10:36:37.548Z</time></trkpt><trkpt lat="39.3812703" lon="16.0669062"><ele>716.0</ele><time>2026-04-12T10:36:38.548Z</time></trkpt><trkpt lat="39.3811929" lon="16.0667493"><ele>710.0</ele><time>2026-04-12T10:36:40.548Z</time></trkpt><trkpt lat="39.3811614" lon="16.0666739"><ele>704.0</ele><time>2026-04-12T10:36:41.547Z</time></trkpt><trkpt lat="39.3811381" lon="16.066589"><ele>701.6666666666666</ele><time>2026-04-12T10:36:42.548Z</time></trkpt><trkpt lat="39.3811794" lon="16.0664757"><ele>699.3333333333333</ele><time>2026-04-12T10:36:43.549Z</time></trkpt><trkpt lat="39.3812361" lon="16.0664063"><ele>697.0</ele><time>2026-04-12T10:36:44.548Z</time></trkpt><trkpt lat="39.3812625" lon="16.0663276"><ele>694.6666666666666</ele><time>2026-04-12T10:36:45.548Z</time></trkpt><trkpt lat="39.3812958" lon="16.0661754"><ele>692.3333333333334</ele><time>2026-04-12T10:36:47.548Z</time></trkpt><trkpt lat="39.3812808" lon="16.0660661"><ele>690.0</ele><time>2026-04-12T10:36:49.548Z</time></trkpt><trkpt lat="39.3811902" lon="16.0660576"><ele>690.0</ele><time>2026-04-12T10:36:52.548Z</time></trkpt><trkpt lat="39.3811385" lon="16.0661071"><ele>690.0</ele><time>2026-04-12T10:36:54.549Z</time></trkpt><trkpt lat="39.3810851" lon="16.0661591"><ele>690.0</ele><time>2026-04-12T10:36:56.548Z</time></trkpt><trkpt lat="39.3810329" lon="16.0662055"><ele>690.0</ele><time>2026-04-12T10:36:58.548Z</time></trkpt><trkpt lat="39.3809782" lon="16.0662611"><ele>690.0</ele><time>2026-04-12T10:37:00.548Z</time></trkpt><trkpt lat="39.3809226" lon="16.0663514"><ele>690.0</ele><time>2026-04-12T10:37:02.549Z</time></trkpt><trkpt lat="39.3808886" lon="16.0664495"><ele>690.0</ele><time>2026-04-12T10:37:04.548Z</time></trkpt><trkpt lat="39.3808696" lon="16.0665566"><ele>692.8</ele><time>2026-04-12T10:37:06.548Z</time></trkpt><trkpt lat="39.3808567" lon="16.0666751"><ele>695.6</ele><time>2026-04-12T10:37:09.548Z</time></trkpt><trkpt lat="39.380864" lon="16.066779"><ele>698.4000000000001</ele><time>2026-04-12T10:37:10.548Z</time></trkpt><trkpt lat="39.3808661" lon="16.0668938"><ele>701.2</ele><time>2026-04-12T10:37:12.548Z</time></trkpt><trkpt lat="39.3808732" lon="16.0670204"><ele>704.0</ele><time>2026-04-12T10:37:14.548Z</time></trkpt><trkpt lat="39.3808791" lon="16.0671545"><ele>704.0</ele><time>2026-04-12T10:37:16.549Z</time></trkpt><trkpt lat="39.3808897" lon="16.0672403"><ele>704.0</ele><time>2026-04-12T10:37:19.548Z</time></trkpt><trkpt lat="39.3808818" lon="16.0673253"><ele>704.0</ele><time>2026-04-12T10:37:22.548Z</time></trkpt><trkpt lat="39.3808876" lon="16.0674129"><ele>704.0</ele><time>2026-04-12T10:37:26.548Z</time></trkpt><trkpt lat="39.3808896" lon="16.0675022"><ele>704.0</ele><time>2026-04-12T10:37:30.549Z</time></trkpt><trkpt lat="39.380876" lon="16.0676215"><ele>704.0</ele><time>2026-04-12T10:37:33.548Z</time></trkpt><trkpt lat="39.3808097" lon="16.0675627"><ele>704.0</ele><time>2026-04-12T10:37:36.548Z</time></trkpt><trkpt lat="39.3807848" lon="16.0674725"><ele>704.0</ele><time>2026-04-12T10:37:38.548Z</time></trkpt><trkpt lat="39.3807487" lon="16.0673906"><ele>704.0</ele><time>2026-04-12T10:37:40.547Z</time></trkpt><trkpt lat="39.3807028" lon="16.0672772"><ele>704.0</ele><time>2026-04-12T10:37:42.548Z</time></trkpt><trkpt lat="39.3806683" lon="16.0671498"><ele>704.0</ele><time>2026-04-12T10:37:44.549Z</time></trkpt><trkpt lat="39.3806551" lon="16.0670669"><ele>704.0</ele><time>2026-04-12T10:37:45.548Z</time></trkpt><trkpt lat="39.3806406" lon="16.0669827"><ele>704.0</ele><time>2026-04-12T10:37:46.548Z</time></trkpt><trkpt lat="39.3806023" lon="16.0668943"><ele>704.0</ele><time>2026-04-12T10:37:47.548Z</time></trkpt><trkpt lat="39.3805434" lon="16.0667296"><ele>704.0</ele><time>2026-04-12T10:37:49.548Z</time></trkpt><trkpt lat="39.3805224" lon="16.0666376"><ele>704.0</ele><time>2026-04-12T10:37:50.548Z</time></trkpt><trkpt lat="39.3804694" lon="16.0665567"><ele>704.0</ele><time>2026-04-12T10:37:51.548Z</time></trkpt><trkpt lat="39.380438" lon="16.0664785"><ele>704.0</ele><time>2026-04-12T10:37:52.548Z</time></trkpt><trkpt lat="39.3803375" lon="16.0664059"><ele>698.1666666666666</ele><time>2026-04-12T10:37:53.548Z</time></trkpt><trkpt lat="39.380256" lon="16.0663559"><ele>692.3333333333333</ele><time>2026-04-12T10:37:54.548Z</time></trkpt><trkpt lat="39.3801897" lon="16.0662944"><ele>686.5</ele><time>2026-04-12T10:37:55.547Z</time></trkpt><trkpt lat="39.380128" lon="16.0662122"><ele>680.6666666666666</ele><time>2026-04-12T10:37:56.548Z</time></trkpt><trkpt lat="39.3800681" lon="16.0661313"><ele>674.8333333333334</ele><time>2026-04-12T10:37:57.548Z</time></trkpt><trkpt lat="39.380007" lon="16.0660593"><ele>669.0</ele><time>2026-04-12T10:37:58.548Z</time></trkpt><trkpt lat="39.3799562" lon="16.06598"><ele>669.0</ele><time>2026-04-12T10:37:59.548Z</time></trkpt><trkpt lat="39.3798881" lon="16.0658946"><ele>669.0</ele><time>2026-04-12T10:38:00.549Z</time></trkpt><trkpt lat="39.3799879" lon="16.0658045"><ele>669.0</ele><time>2026-04-12T10:38:01.548Z</time></trkpt><trkpt lat="39.3800559" lon="16.0657014"><ele>669.0</ele><time>2026-04-12T10:38:03.548Z</time></trkpt><trkpt lat="39.3801351" lon="16.065631"><ele>669.0</ele><time>2026-04-12T10:38:05.548Z</time></trkpt><trkpt lat="39.3802197" lon="16.0655813"><ele>665.5</ele><time>2026-04-12T10:38:07.548Z</time></trkpt><trkpt lat="39.3802855" lon="16.0655233"><ele>662.0</ele><time>2026-04-12T10:38:09.549Z</time></trkpt><trkpt lat="39.3802646" lon="16.0654244"><ele>658.5</ele><time>2026-04-12T10:38:12.548Z</time></trkpt><trkpt lat="39.3802024" lon="16.0654411"><ele>655.0</ele><time>2026-04-12T10:38:13.548Z</time></trkpt><trkpt lat="39.380118" lon="16.0654645"><ele>651.5</ele><time>2026-04-12T10:38:15.548Z</time></trkpt><trkpt lat="39.379997" lon="16.0654934"><ele>648.0</ele><time>2026-04-12T10:38:17.548Z</time></trkpt><trkpt lat="39.3798809" lon="16.06551"><ele>648.0</ele><time>2026-04-12T10:38:19.548Z</time></trkpt><trkpt lat="39.3798138" lon="16.065548"><ele>648.0</ele><time>2026-04-12T10:38:20.548Z</time></trkpt><trkpt lat="39.3797427" lon="16.0655706"><ele>648.0</ele><time>2026-04-12T10:38:21.548Z</time></trkpt><trkpt lat="39.3796725" lon="16.0655979"><ele>648.0</ele><time>2026-04-12T10:38:22.548Z</time></trkpt><trkpt lat="39.3796266" lon="16.0656578"><ele>648.0</ele><time>2026-04-12T10:38:23.548Z</time></trkpt><trkpt lat="39.3795654" lon="16.0657241"><ele>648.0</ele><time>2026-04-12T10:38:24.548Z</time></trkpt><trkpt lat="39.3794797" lon="16.0658126"><ele>646.8333333333334</ele><time>2026-04-12T10:38:26.549Z</time></trkpt><trkpt lat="39.3794576" lon="16.0659028"><ele>645.6666666666666</ele><time>2026-04-12T10:38:28.548Z</time></trkpt><trkpt lat="39.3794445" lon="16.0660122"><ele>644.5</ele><time>2026-04-12T10:38:30.547Z</time></trkpt><trkpt lat="39.3794016" lon="16.0661355"><ele>643.3333333333333</ele><time>2026-04-12T10:38:32.548Z</time></trkpt><trkpt lat="39.3793002" lon="16.0661484"><ele>642.1666666666666</ele><time>2026-04-12T10:38:34.548Z</time></trkpt><trkpt lat="39.3792817" lon="16.0660624"><ele>641.0</ele><time>2026-04-12T10:38:36.548Z</time></trkpt><trkpt lat="39.379249" lon="16.065941"><ele>641.0</ele><time>2026-04-12T10:38:38.549Z</time></trkpt><trkpt lat="39.3792241" lon="16.0658331"><ele>641.0</ele><time>2026-04-12T10:38:40.549Z</time></trkpt><trkpt lat="39.3792455" lon="16.0657435"><ele>641.0</ele><time>2026-04-12T10:38:41.548Z</time></trkpt><trkpt lat="39.3792859" lon="16.065662"><ele>641.0</ele><time>2026-04-12T10:38:42.548Z</time></trkpt><trkpt lat="39.3793494" lon="16.0654839"><ele>641.0</ele><time>2026-04-12T10:38:44.548Z</time></trkpt><trkpt lat="39.37938" lon="16.0653996"><ele>642.0</ele><time>2026-04-12T10:38:45.548Z</time></trkpt><trkpt lat="39.379424" lon="16.0653166"><ele>643.0</ele><time>2026-04-12T10:38:46.548Z</time></trkpt><trkpt lat="39.3794645" lon="16.0652376"><ele>644.0</ele><time>2026-04-12T10:38:47.547Z</time></trkpt><trkpt lat="39.3795157" lon="16.0651837"><ele>645.0</ele><time>2026-04-12T10:38:48.549Z</time></trkpt><trkpt lat="39.3795819" lon="16.065178"><ele>646.0</ele><time>2026-04-12T10:38:49.548Z</time></trkpt><trkpt lat="39.3796266" lon="16.0651171"><ele>647.0</ele><time>2026-04-12T10:38:50.549Z</time></trkpt><trkpt lat="39.3796763" lon="16.0650593"><ele>648.0</ele><time>2026-04-12T10:38:51.548Z</time></trkpt><trkpt lat="39.3797156" lon="16.0649818"><ele>641.1666666666666</ele><time>2026-04-12T10:38:52.547Z</time></trkpt><trkpt lat="39.3797688" lon="16.0649057"><ele>634.3333333333334</ele><time>2026-04-12T10:38:54.548Z</time></trkpt><trkpt lat="39.3797989" lon="16.0648276"><ele>627.5</ele><time>2026-04-12T10:38:56.549Z</time></trkpt><trkpt lat="39.3798485" lon="16.0647346"><ele>620.6666666666667</ele><time>2026-04-12T10:39:06.548Z</time></trkpt><trkpt lat="39.3799257" lon="16.0647058"><ele>613.8333333333334</ele><time>2026-04-12T10:39:08.548Z</time></trkpt><trkpt lat="39.380031" lon="16.0646871"><ele>607.0</ele><time>2026-04-12T10:39:10.548Z</time></trkpt><trkpt lat="39.380106" lon="16.0646847"><ele>607.0</ele><time>2026-04-12T10:39:13.548Z</time></trkpt><trkpt lat="39.3801761" lon="16.0646799"><ele>607.0</ele><time>2026-04-12T10:39:16.549Z</time></trkpt><trkpt lat="39.3802537" lon="16.0646753"><ele>607.0</ele><time>2026-04-12T10:39:40.548Z</time></trkpt><trkpt lat="39.3803947" lon="16.0646545"><ele>607.0</ele><time>2026-04-12T10:39:42.548Z</time></trkpt><trkpt lat="39.3804716" lon="16.0646332"><ele>607.0</ele><time>2026-04-12T10:39:43.548Z</time></trkpt><trkpt lat="39.3805507" lon="16.0646141"><ele>607.0</ele><time>2026-04-12T10:39:44.548Z</time></trkpt><trkpt lat="39.3806242" lon="16.0646002"><ele>609.1666666666667</ele><time>2026-04-12T10:39:45.548Z</time></trkpt><trkpt lat="39.3807075" lon="16.0645389"><ele>611.3333333333334</ele><time>2026-04-12T10:39:46.548Z</time></trkpt><trkpt lat="39.3807784" lon="16.0644903"><ele>613.5</ele><time>2026-04-12T10:39:47.549Z</time></trkpt><trkpt lat="39.3808416" lon="16.0644585"><ele>615.6666666666666</ele><time>2026-04-12T10:39:48.548Z</time></trkpt><trkpt lat="39.3809648" lon="16.0644643"><ele>617.8333333333333</ele><time>2026-04-12T10:39:50.547Z</time></trkpt><trkpt lat="39.3810313" lon="16.0644775"><ele>620.0</ele><time>2026-04-12T10:39:51.547Z</time></trkpt><trkpt lat="39.3811007" lon="16.0645171"><ele>620.0</ele><time>2026-04-12T10:39:52.548Z</time></trkpt><trkpt lat="39.3811869" lon="16.0645861"><ele>620.0</ele><time>2026-04-12T10:39:53.548Z</time></trkpt><trkpt lat="39.3812628" lon="16.0646361"><ele>620.0</ele><time>2026-04-12T10:39:54.549Z</time></trkpt><trkpt lat="39.381338" lon="16.0646803"><ele>620.0</ele><time>2026-04-12T10:39:55.547Z</time></trkpt><trkpt lat="39.3814064" lon="16.0646978"><ele>620.0</ele><time>2026-04-12T10:39:56.548Z</time></trkpt><trkpt lat="39.3815279" lon="16.0646969"><ele>626.2</ele><time>2026-04-12T10:39:58.548Z</time></trkpt><trkpt lat="39.3816583" lon="16.0646492"><ele>632.4</ele><time>2026-04-12T10:40:00.548Z</time></trkpt><trkpt lat="39.3817363" lon="16.0645785"><ele>638.5999999999999</ele><time>2026-04-12T10:40:02.548Z</time></trkpt><trkpt lat="39.3817274" lon="16.0644972"><ele>644.8</ele><time>2026-04-12T10:40:38.548Z</time></trkpt><trkpt lat="39.3816866" lon="16.0643915"><ele>651.0</ele><time>2026-04-12T10:40:41.548Z</time></trkpt><trkpt lat="39.3815894" lon="16.0643235"><ele>651.0</ele><time>2026-04-12T10:40:42.548Z</time></trkpt><trkpt lat="39.3815509" lon="16.0642561"><ele>651.0</ele><time>2026-04-12T10:40:43.547Z</time></trkpt><trkpt lat="39.3815322" lon="16.0641604"><ele>651.0</ele><time>2026-04-12T10:40:44.547Z</time></trkpt><trkpt lat="39.3814861" lon="16.0640607"><ele>651.0</ele><time>2026-04-12T10:40:45.548Z</time></trkpt><trkpt lat="39.3814484" lon="16.0639183"><ele>651.0</ele><time>2026-04-12T10:40:46.548Z</time></trkpt><trkpt lat="39.3813973" lon="16.0638345"><ele>651.0</ele><time>2026-04-12T10:40:47.549Z</time></trkpt><trkpt lat="39.3813357" lon="16.0637568"><ele>647.6666666666666</ele><time>2026-04-12T10:40:48.547Z</time></trkpt><trkpt lat="39.3812635" lon="16.0636899"><ele>644.3333333333334</ele><time>2026-04-12T10:40:49.548Z</time></trkpt><trkpt lat="39.3811916" lon="16.0636412"><ele>641.0</ele><time>2026-04-12T10:40:50.548Z</time></trkpt><trkpt lat="39.3811313" lon="16.0636141"><ele>637.6666666666667</ele><time>2026-04-12T10:40:51.548Z</time></trkpt><trkpt lat="39.3810598" lon="16.0635923"><ele>634.3333333333334</ele><time>2026-04-12T10:40:52.548Z</time></trkpt><trkpt lat="39.3809517" lon="16.0635889"><ele>631.0</ele><time>2026-04-12T10:40:54.55Z</time></trkpt><trkpt lat="39.3808675" lon="16.0635111"><ele>631.0</ele><time>2026-04-12T10:40:56.549Z</time></trkpt><trkpt lat="39.3808085" lon="16.0633964"><ele>631.0</ele><time>2026-04-12T10:40:58.549Z</time></trkpt><trkpt lat="39.3807483" lon="16.0632819"><ele>631.0</ele><time>2026-04-12T10:41:00.549Z</time></trkpt><trkpt lat="39.3806787" lon="16.0631845"><ele>631.0</ele><time>2026-04-12T10:41:02.55Z</time></trkpt><trkpt lat="39.3806009" lon="16.0630759"><ele>631.0</ele><time>2026-04-12T10:41:04.549Z</time></trkpt><trkpt lat="39.3805159" lon="16.0629662"><ele>628.6666666666667</ele><time>2026-04-12T10:41:06.55Z</time></trkpt><trkpt lat="39.3804204" lon="16.0628623"><ele>626.3333333333334</ele><time>2026-04-12T10:41:08.549Z</time></trkpt><trkpt lat="39.3803648" lon="16.062811"><ele>624.0</ele><time>2026-04-12T10:41:09.549Z</time></trkpt><trkpt lat="39.3803063" lon="16.0627581"><ele>621.6666666666666</ele><time>2026-04-12T10:41:10.549Z</time></trkpt><trkpt lat="39.3802541" lon="16.0627037"><ele>619.3333333333333</ele><time>2026-04-12T10:41:11.55Z</time></trkpt><trkpt lat="39.3801626" lon="16.0626187"><ele>617.0</ele><time>2026-04-12T10:41:13.549Z</time></trkpt><trkpt lat="39.3800703" lon="16.0625718"><ele>617.0</ele><time>2026-04-12T10:41:15.549Z</time></trkpt><trkpt lat="39.3799558" lon="16.0625544"><ele>617.0</ele><time>2026-04-12T10:41:17.549Z</time></trkpt><trkpt lat="39.3798317" lon="16.0625559"><ele>617.0</ele><time>2026-04-12T10:41:19.548Z</time></trkpt><trkpt lat="39.379697" lon="16.0625403"><ele>617.0</ele><time>2026-04-12T10:41:21.548Z</time></trkpt><trkpt lat="39.3796205" lon="16.0625368"><ele>613.0</ele><time>2026-04-12T10:41:22.55Z</time></trkpt><trkpt lat="39.3795492" lon="16.0625445"><ele>609.0</ele><time>2026-04-12T10:41:23.549Z</time></trkpt><trkpt lat="39.3794247" lon="16.0625576"><ele>605.0</ele><time>2026-04-12T10:41:25.549Z</time></trkpt><trkpt lat="39.3793605" lon="16.0625676"><ele>601.0</ele><time>2026-04-12T10:41:26.549Z</time></trkpt><trkpt lat="39.3792967" lon="16.0625766"><ele>597.0</ele><time>2026-04-12T10:41:27.549Z</time></trkpt><trkpt lat="39.3792321" lon="16.0625551"><ele>593.0</ele><time>2026-04-12T10:41:28.55Z</time></trkpt><trkpt lat="39.3791726" lon="16.062527"><ele>593.0</ele><time>2026-04-12T10:41:29.549Z</time></trkpt><trkpt lat="39.3791122" lon="16.0624814"><ele>593.0</ele><time>2026-04-12T10:41:30.549Z</time></trkpt><trkpt lat="39.3790501" lon="16.06243"><ele>593.0</ele><time>2026-04-12T10:41:31.55Z</time></trkpt><trkpt lat="39.378987" lon="16.0623742"><ele>593.0</ele><time>2026-04-12T10:41:32.55Z</time></trkpt><trkpt lat="39.3789263" lon="16.0623158"><ele>593.0</ele><time>2026-04-12T10:41:33.549Z</time></trkpt><trkpt lat="39.3788591" lon="16.0622598"><ele>593.0</ele><time>2026-04-12T10:41:34.549Z</time></trkpt><trkpt lat="39.3787982" lon="16.0622046"><ele>591.6666666666666</ele><time>2026-04-12T10:41:35.549Z</time></trkpt><trkpt lat="39.3787374" lon="16.0621425"><ele>590.3333333333333</ele><time>2026-04-12T10:41:36.549Z</time></trkpt><trkpt lat="39.3786659" lon="16.062094"><ele>589.0</ele><time>2026-04-12T10:41:37.548Z</time></trkpt><trkpt lat="39.3785914" lon="16.0620462"><ele>587.6666666666666</ele><time>2026-04-12T10:41:38.548Z</time></trkpt><trkpt lat="39.3785206" lon="16.0619961"><ele>586.3333333333334</ele><time>2026-04-12T10:41:39.549Z</time></trkpt><trkpt lat="39.3784537" lon="16.0619456"><ele>585.0</ele><time>2026-04-12T10:41:40.549Z</time></trkpt><trkpt lat="39.378385" lon="16.061899"><ele>585.0</ele><time>2026-04-12T10:41:41.549Z</time></trkpt><trkpt lat="39.3783106" lon="16.0618531"><ele>585.0</ele><time>2026-04-12T10:41:42.548Z</time></trkpt><trkpt lat="39.3782374" lon="16.0618261"><ele>585.0</ele><time>2026-04-12T10:41:43.549Z</time></trkpt><trkpt lat="39.3781678" lon="16.0617945"><ele>585.0</ele><time>2026-04-12T10:41:44.549Z</time></trkpt><trkpt lat="39.3781033" lon="16.0617576"><ele>585.0</ele><time>2026-04-12T10:41:45.549Z</time></trkpt><trkpt lat="39.3780455" lon="16.0617133"><ele>585.0</ele><time>2026-04-12T10:41:46.549Z</time></trkpt><trkpt lat="39.3779944" lon="16.0616552"><ele>585.0</ele><time>2026-04-12T10:41:47.549Z</time></trkpt><trkpt lat="39.3779432" lon="16.061597"><ele>579.6666666666666</ele><time>2026-04-12T10:41:48.549Z</time></trkpt><trkpt lat="39.3778868" lon="16.0615309"><ele>574.3333333333334</ele><time>2026-04-12T10:41:49.549Z</time></trkpt><trkpt lat="39.3778281" lon="16.0614666"><ele>569.0</ele><time>2026-04-12T10:41:50.549Z</time></trkpt><trkpt lat="39.3777799" lon="16.0614134"><ele>563.6666666666667</ele><time>2026-04-12T10:41:51.55Z</time></trkpt><trkpt lat="39.3777176" lon="16.0613021"><ele>558.3333333333334</ele><time>2026-04-12T10:41:53.549Z</time></trkpt><trkpt lat="39.3776769" lon="16.0611909"><ele>553.0</ele><time>2026-04-12T10:41:55.549Z</time></trkpt><trkpt lat="39.3776234" lon="16.0611243"><ele>553.0</ele><time>2026-04-12T10:41:57.548Z</time></trkpt><trkpt lat="39.3775832" lon="16.0612224"><ele>553.0</ele><time>2026-04-12T10:42:00.549Z</time></trkpt><trkpt lat="39.3776062" lon="16.0613097"><ele>553.0</ele><time>2026-04-12T10:42:02.549Z</time></trkpt><trkpt lat="39.3776268" lon="16.0613871"><ele>553.0</ele><time>2026-04-12T10:42:04.549Z</time></trkpt><trkpt lat="39.3776765" lon="16.0614539"><ele>553.0</ele><time>2026-04-12T10:42:08.549Z</time></trkpt><trkpt lat="39.377722" lon="16.0615304"><ele>553.0</ele><time>2026-04-12T10:43:10.549Z</time></trkpt><trkpt lat="39.3777653" lon="16.0616063"><ele>553.0</ele><time>2026-04-12T10:43:14.549Z</time></trkpt><trkpt lat="39.3778076" lon="16.0616895"><ele>551.5</ele><time>2026-04-12T10:43:18.549Z</time></trkpt><trkpt lat="39.3778456" lon="16.0617712"><ele>550.0</ele><time>2026-04-12T10:43:23.549Z</time></trkpt><trkpt lat="39.3778998" lon="16.0618532"><ele>548.5</ele><time>2026-04-12T10:43:26.549Z</time></trkpt><trkpt lat="39.3779588" lon="16.0619362"><ele>547.0</ele><time>2026-04-12T10:43:29.549Z</time></trkpt><trkpt lat="39.3779279" lon="16.0620294"><ele>545.5</ele><time>2026-04-12T10:43:32.549Z</time></trkpt><trkpt lat="39.3778458" lon="16.0619871"><ele>544.0</ele><time>2026-04-12T10:43:35.549Z</time></trkpt><trkpt lat="39.3777915" lon="16.0618999"><ele>544.0</ele><time>2026-04-12T10:43:37.549Z</time></trkpt><trkpt lat="39.3777349" lon="16.0618261"><ele>544.0</ele><time>2026-04-12T10:43:39.549Z</time></trkpt><trkpt lat="39.3776828" lon="16.0617487"><ele>544.0</ele><time>2026-04-12T10:43:41.548Z</time></trkpt><trkpt lat="39.3776293" lon="16.0616669"><ele>544.0</ele><time>2026-04-12T10:43:43.549Z</time></trkpt><trkpt lat="39.3775716" lon="16.0615874"><ele>544.0</ele><time>2026-04-12T10:43:45.549Z</time></trkpt><trkpt lat="39.3775107" lon="16.0615117"><ele>544.0</ele><time>2026-04-12T10:43:47.549Z</time></trkpt><trkpt lat="39.3774494" lon="16.0614321"><ele>545.5</ele><time>2026-04-12T10:43:49.549Z</time></trkpt><trkpt lat="39.3773819" lon="16.0613532"><ele>547.0</ele><time>2026-04-12T10:43:51.549Z</time></trkpt><trkpt lat="39.3773139" lon="16.0612691"><ele>548.5</ele><time>2026-04-12T10:43:53.549Z</time></trkpt><trkpt lat="39.3772438" lon="16.0611849"><ele>550.0</ele><time>2026-04-12T10:43:55.549Z</time></trkpt><trkpt lat="39.3772105" lon="16.0611131"><ele>551.5</ele><time>2026-04-12T10:43:57.549Z</time></trkpt><trkpt lat="39.3772158" lon="16.061031"><ele>553.0</ele><time>2026-04-12T10:44:46.549Z</time></trkpt><trkpt lat="39.3772768" lon="16.0609599"><ele>553.0</ele><time>2026-04-12T10:44:55.549Z</time></trkpt><trkpt lat="39.3773555" lon="16.0608907"><ele>553.0</ele><time>2026-04-12T10:44:57.55Z</time></trkpt><trkpt lat="39.3774222" lon="16.0608035"><ele>553.0</ele><time>2026-04-12T10:44:59.549Z</time></trkpt><trkpt lat="39.3774861" lon="16.0607106"><ele>553.0</ele><time>2026-04-12T10:45:01.549Z</time></trkpt><trkpt lat="39.3775447" lon="16.0606014"><ele>553.0</ele><time>2026-04-12T10:45:03.549Z</time></trkpt><trkpt lat="39.3776002" lon="16.0604834"><ele>545.5</ele><time>2026-04-12T10:45:05.549Z</time></trkpt><trkpt lat="39.377679" lon="16.0603774"><ele>538.0</ele><time>2026-04-12T10:45:07.549Z</time></trkpt><trkpt lat="39.3777335" lon="16.0602465"><ele>530.5</ele><time>2026-04-12T10:45:09.549Z</time></trkpt><trkpt lat="39.377763" lon="16.0600999"><ele>523.0</ele><time>2026-04-12T10:45:11.549Z</time></trkpt><trkpt lat="39.3777922" lon="16.0599464"><ele>526.6</ele><time>2026-04-12T10:45:13.549Z</time></trkpt><trkpt lat="39.3778624" lon="16.0598215"><ele>530.1999999999999</ele><time>2026-04-12T10:45:15.549Z</time></trkpt><trkpt lat="39.3779581" lon="16.0597262"><ele>533.8</ele><time>2026-04-12T10:45:17.549Z</time></trkpt><trkpt lat="39.3780509" lon="16.0596184"><ele>537.4</ele><time>2026-04-12T10:45:19.55Z</time></trkpt><trkpt lat="39.3780849" lon="16.0595455"><ele>541.0</ele><time>2026-04-12T10:45:20.549Z</time></trkpt><trkpt lat="39.3781172" lon="16.0594695"><ele>541.0000000000001</ele><time>2026-04-12T10:45:21.549Z</time></trkpt><trkpt lat="39.3781472" lon="16.0593893"><ele>541.0</ele><time>2026-04-12T10:45:22.549Z</time></trkpt><trkpt lat="39.3781799" lon="16.0593111"><ele>541.0</ele><time>2026-04-12T10:45:23.548Z</time></trkpt><trkpt lat="39.3782079" lon="16.0592269"><ele>541.0</ele><time>2026-04-12T10:45:24.548Z</time></trkpt><trkpt lat="39.3782354" lon="16.0591408"><ele>541.0</ele><time>2026-04-12T10:45:25.55Z</time></trkpt><trkpt lat="39.3782586" lon="16.0590485"><ele>541.0000000000001</ele><time>2026-04-12T10:45:26.55Z</time></trkpt><trkpt lat="39.3782862" lon="16.0589608"><ele>541.0</ele><time>2026-04-12T10:45:27.549Z</time></trkpt><trkpt lat="39.378311" lon="16.0588758"><ele>538.2857142857143</ele><time>2026-04-12T10:45:28.549Z</time></trkpt><trkpt lat="39.3783311" lon="16.0587894"><ele>535.5714285714286</ele><time>2026-04-12T10:45:29.549Z</time></trkpt><trkpt lat="39.3783534" lon="16.0587067"><ele>532.8571428571429</ele><time>2026-04-12T10:45:30.549Z</time></trkpt><trkpt lat="39.378378" lon="16.058625"><ele>530.1428571428571</ele><time>2026-04-12T10:45:31.549Z</time></trkpt><trkpt lat="39.3784071" lon="16.0585414"><ele>527.4285714285714</ele><time>2026-04-12T10:45:32.549Z</time></trkpt><trkpt lat="39.3784312" lon="16.0584553"><ele>524.7142857142858</ele><time>2026-04-12T10:45:33.549Z</time></trkpt><trkpt lat="39.3784535" lon="16.0583742"><ele>522.0</ele><time>2026-04-12T10:45:34.549Z</time></trkpt><trkpt lat="39.3784731" lon="16.0582943"><ele>518.4</ele><time>2026-04-12T10:45:35.549Z</time></trkpt><trkpt lat="39.3784923" lon="16.0582159"><ele>514.8000000000001</ele><time>2026-04-12T10:45:36.549Z</time></trkpt><trkpt lat="39.3785019" lon="16.0581354"><ele>511.2</ele><time>2026-04-12T10:45:37.549Z</time></trkpt><trkpt lat="39.3785035" lon="16.0579819"><ele>507.6</ele><time>2026-04-12T10:45:39.549Z</time></trkpt><trkpt lat="39.3784717" lon="16.0578379"><ele>504.0</ele><time>2026-04-12T10:45:41.549Z</time></trkpt><trkpt lat="39.3784195" lon="16.0577218"><ele>504.0</ele><time>2026-04-12T10:45:43.549Z</time></trkpt><trkpt lat="39.3783517" lon="16.0575996"><ele>504.0</ele><time>2026-04-12T10:45:45.549Z</time></trkpt><trkpt lat="39.3782889" lon="16.0574656"><ele>504.0</ele><time>2026-04-12T10:45:47.549Z</time></trkpt><trkpt lat="39.378253" lon="16.0573595"><ele>504.0</ele><time>2026-04-12T10:45:49.55Z</time></trkpt><trkpt lat="39.3782306" lon="16.0572316"><ele>504.0</ele><time>2026-04-12T10:45:51.549Z</time></trkpt><trkpt lat="39.3782475" lon="16.057097"><ele>502.4</ele><time>2026-04-12T10:45:53.549Z</time></trkpt><trkpt lat="39.3782896" lon="16.0569646"><ele>500.79999999999995</ele><time>2026-04-12T10:45:55.549Z</time></trkpt><trkpt lat="39.3783513" lon="16.0568129"><ele>499.20000000000005</ele><time>2026-04-12T10:45:57.549Z</time></trkpt><trkpt lat="39.3783728" lon="16.0567257"><ele>497.6</ele><time>2026-04-12T10:45:58.549Z</time></trkpt><trkpt lat="39.3783966" lon="16.056612"><ele>496.0</ele><time>2026-04-12T10:45:59.548Z</time></trkpt><trkpt lat="39.3784213" lon="16.0565111"><ele>491.6666666666667</ele><time>2026-04-12T10:46:00.548Z</time></trkpt><trkpt lat="39.3784419" lon="16.0564043"><ele>487.33333333333337</ele><time>2026-04-12T10:46:01.548Z</time></trkpt><trkpt lat="39.3784474" lon="16.0563153"><ele>483.0</ele><time>2026-04-12T10:46:02.549Z</time></trkpt><trkpt lat="39.3784522" lon="16.0562162"><ele>478.66666666666663</ele><time>2026-04-12T10:46:03.55Z</time></trkpt><trkpt lat="39.3784599" lon="16.056123"><ele>474.3333333333333</ele><time>2026-04-12T10:46:04.549Z</time></trkpt><trkpt lat="39.3784658" lon="16.0560256"><ele>470.0</ele><time>2026-04-12T10:46:05.549Z</time></trkpt><trkpt lat="39.378476" lon="16.0559327"><ele>469.99999999999994</ele><time>2026-04-12T10:46:06.549Z</time></trkpt><trkpt lat="39.378492" lon="16.0558431"><ele>470.0</ele><time>2026-04-12T10:46:07.55Z</time></trkpt><trkpt lat="39.3785238" lon="16.0557645"><ele>470.0</ele><time>2026-04-12T10:46:08.548Z</time></trkpt><trkpt lat="39.3785663" lon="16.0556804"><ele>470.0</ele><time>2026-04-12T10:46:09.549Z</time></trkpt><trkpt lat="39.3786082" lon="16.0555868"><ele>469.99999999999994</ele><time>2026-04-12T10:46:10.55Z</time></trkpt><trkpt lat="39.3786545" lon="16.0554984"><ele>470.0</ele><time>2026-04-12T10:46:11.549Z</time></trkpt><trkpt lat="39.378698" lon="16.0554131"><ele>474.4</ele><time>2026-04-12T10:46:12.549Z</time></trkpt><trkpt lat="39.3787486" lon="16.0553295"><ele>478.8</ele><time>2026-04-12T10:46:13.549Z</time></trkpt><trkpt lat="39.3788206" lon="16.0551903"><ele>483.20000000000005</ele><time>2026-04-12T10:46:15.549Z</time></trkpt><trkpt lat="39.3788643" lon="16.055015"><ele>487.6</ele><time>2026-04-12T10:46:17.549Z</time></trkpt><trkpt lat="39.3788819" lon="16.0549366"><ele>492.0</ele><time>2026-04-12T10:46:18.55Z</time></trkpt><trkpt lat="39.3789175" lon="16.0548006"><ele>483.8333333333333</ele><time>2026-04-12T10:46:20.549Z</time></trkpt><trkpt lat="39.3789561" lon="16.054735"><ele>475.66666666666663</ele><time>2026-04-12T10:46:21.549Z</time></trkpt><trkpt lat="39.3790588" lon="16.0546409"><ele>467.5</ele><time>2026-04-12T10:46:23.549Z</time></trkpt><trkpt lat="39.3791127" lon="16.0545925"><ele>459.3333333333333</ele><time>2026-04-12T10:46:24.548Z</time></trkpt><trkpt lat="39.3791841" lon="16.0545729"><ele>451.16666666666663</ele><time>2026-04-12T10:46:25.548Z</time></trkpt><trkpt lat="39.3792607" lon="16.0545588"><ele>443.0</ele><time>2026-04-12T10:46:26.549Z</time></trkpt><trkpt lat="39.3793394" lon="16.0545493"><ele>443.0</ele><time>2026-04-12T10:46:27.55Z</time></trkpt><trkpt lat="39.3794192" lon="16.0545908"><ele>442.99999999999994</ele><time>2026-04-12T10:46:28.55Z</time></trkpt><trkpt lat="39.3795015" lon="16.0546238"><ele>442.99999999999994</ele><time>2026-04-12T10:46:29.549Z</time></trkpt><trkpt lat="39.3795747" lon="16.0546687"><ele>443.0</ele><time>2026-04-12T10:46:30.548Z</time></trkpt><trkpt lat="39.379637" lon="16.0547167"><ele>443.0</ele><time>2026-04-12T10:46:31.549Z</time></trkpt><trkpt lat="39.3797564" lon="16.0547652"><ele>443.4</ele><time>2026-04-12T10:46:33.549Z</time></trkpt><trkpt lat="39.3798412" lon="16.0547508"><ele>443.79999999999995</ele><time>2026-04-12T10:46:34.549Z</time></trkpt><trkpt lat="39.3799095" lon="16.0547415"><ele>444.2</ele><time>2026-04-12T10:46:35.548Z</time></trkpt><trkpt lat="39.380033" lon="16.0546669"><ele>444.6</ele><time>2026-04-12T10:46:37.549Z</time></trkpt><trkpt lat="39.3801552" lon="16.054689"><ele>445.0</ele><time>2026-04-12T10:46:39.549Z</time></trkpt><trkpt lat="39.3802376" lon="16.054689"><ele>445.0</ele><time>2026-04-12T10:46:40.55Z</time></trkpt><trkpt lat="39.380328" lon="16.0546658"><ele>445.0</ele><time>2026-04-12T10:46:41.549Z</time></trkpt><trkpt lat="39.3804138" lon="16.054652"><ele>445.0</ele><time>2026-04-12T10:46:42.549Z</time></trkpt><trkpt lat="39.3804985" lon="16.0546283"><ele>445.0</ele><time>2026-04-12T10:46:43.549Z</time></trkpt><trkpt lat="39.3805668" lon="16.0545913"><ele>445.0</ele><time>2026-04-12T10:46:44.549Z</time></trkpt><trkpt lat="39.3806701" lon="16.0545134"><ele>444.4</ele><time>2026-04-12T10:46:46.549Z</time></trkpt><trkpt lat="39.3807819" lon="16.0544388"><ele>443.8</ele><time>2026-04-12T10:46:48.549Z</time></trkpt><trkpt lat="39.3808665" lon="16.0543926"><ele>443.20000000000005</ele><time>2026-04-12T10:46:50.549Z</time></trkpt><trkpt lat="39.3808564" lon="16.0542911"><ele>442.6</ele><time>2026-04-12T10:46:54.549Z</time></trkpt><trkpt lat="39.3807525" lon="16.0542678"><ele>442.0</ele><time>2026-04-12T10:46:57.549Z</time></trkpt><trkpt lat="39.3806661" lon="16.0542653"><ele>442.00000000000006</ele><time>2026-04-12T10:46:59.549Z</time></trkpt><trkpt lat="39.380585" lon="16.0542283"><ele>442.0</ele><time>2026-04-12T10:47:01.549Z</time></trkpt><trkpt lat="39.3806031" lon="16.054147"><ele>442.0</ele><time>2026-04-12T10:47:02.549Z</time></trkpt><trkpt lat="39.3806607" lon="16.0540543"><ele>442.0</ele><time>2026-04-12T10:47:04.549Z</time></trkpt><trkpt lat="39.3807457" lon="16.0540126"><ele>442.00000000000006</ele><time>2026-04-12T10:47:06.549Z</time></trkpt><trkpt lat="39.3808481" lon="16.0539644"><ele>442.0</ele><time>2026-04-12T10:47:08.549Z</time></trkpt><trkpt lat="39.3809684" lon="16.0539489"><ele>442.0</ele><time>2026-04-12T10:47:10.549Z</time></trkpt><trkpt lat="39.3810728" lon="16.0539464"><ele>442.00000000000006</ele><time>2026-04-12T10:47:12.549Z</time></trkpt><trkpt lat="39.3811648" lon="16.0539797"><ele>442.00000000000006</ele><time>2026-04-12T10:47:14.549Z</time></trkpt><trkpt lat="39.3812318" lon="16.0540929"><ele>442.0</ele><time>2026-04-12T10:47:16.549Z</time></trkpt><trkpt lat="39.3813125" lon="16.0542018"><ele>442.0</ele><time>2026-04-12T10:47:18.549Z</time></trkpt><trkpt lat="39.381384" lon="16.0542942"><ele>440.1666666666667</ele><time>2026-04-12T10:47:20.549Z</time></trkpt><trkpt lat="39.3814484" lon="16.0543759"><ele>438.33333333333337</ele><time>2026-04-12T10:47:22.549Z</time></trkpt><trkpt lat="39.3815178" lon="16.0544194"><ele>436.5</ele><time>2026-04-12T10:47:24.549Z</time></trkpt><trkpt lat="39.381592" lon="16.0544751"><ele>434.66666666666663</ele><time>2026-04-12T10:47:26.549Z</time></trkpt><trkpt lat="39.3816665" lon="16.0544833"><ele>432.8333333333333</ele><time>2026-04-12T10:47:28.548Z</time></trkpt><trkpt lat="39.3817216" lon="16.0544264"><ele>431.0</ele><time>2026-04-12T10:47:30.549Z</time></trkpt><trkpt lat="39.3817084" lon="16.0543334"><ele>431.0</ele><time>2026-04-12T10:47:32.549Z</time></trkpt><trkpt lat="39.3816216" lon="16.0542905"><ele>431.0</ele><time>2026-04-12T10:47:33.549Z</time></trkpt><trkpt lat="39.3815891" lon="16.0541204"><ele>431.0</ele><time>2026-04-12T10:47:35.549Z</time></trkpt><trkpt lat="39.3816127" lon="16.0540232"><ele>431.0</ele><time>2026-04-12T10:47:36.549Z</time></trkpt><trkpt lat="39.3816147" lon="16.0539059"><ele>431.0</ele><time>2026-04-12T10:47:37.549Z</time></trkpt><trkpt lat="39.3816226" lon="16.0538187"><ele>428.3333333333333</ele><time>2026-04-12T10:47:38.55Z</time></trkpt><trkpt lat="39.3816324" lon="16.0537318"><ele>425.66666666666663</ele><time>2026-04-12T10:47:39.549Z</time></trkpt><trkpt lat="39.3816713" lon="16.0536546"><ele>423.0</ele><time>2026-04-12T10:47:40.549Z</time></trkpt><trkpt lat="39.3817588" lon="16.0535704"><ele>420.33333333333337</ele><time>2026-04-12T10:47:42.549Z</time></trkpt><trkpt lat="39.3818241" lon="16.0535168"><ele>417.6666666666667</ele><time>2026-04-12T10:47:44.548Z</time></trkpt><trkpt lat="39.3818882" lon="16.0534631"><ele>415.0</ele><time>2026-04-12T10:47:46.548Z</time></trkpt><trkpt lat="39.3819376" lon="16.0534078"><ele>415.00000000000006</ele><time>2026-04-12T10:47:48.549Z</time></trkpt><trkpt lat="39.3818906" lon="16.0533276"><ele>415.0</ele><time>2026-04-12T10:47:51.549Z</time></trkpt><trkpt lat="39.3818085" lon="16.0533528"><ele>415.0</ele><time>2026-04-12T10:47:54.549Z</time></trkpt><trkpt lat="39.3817322" lon="16.0533833"><ele>415.0</ele><time>2026-04-12T10:47:57.549Z</time></trkpt><trkpt lat="39.3816659" lon="16.0533622"><ele>415.00000000000006</ele><time>2026-04-12T10:48:00.549Z</time></trkpt><trkpt lat="39.38158" lon="16.0533258"><ele>415.0</ele><time>2026-04-12T10:48:03.549Z</time></trkpt><trkpt lat="39.3814926" lon="16.0532642"><ele>415.8</ele><time>2026-04-12T10:48:05.549Z</time></trkpt><trkpt lat="39.3814114" lon="16.0532188"><ele>416.6</ele><time>2026-04-12T10:48:06.55Z</time></trkpt><trkpt lat="39.3813462" lon="16.053148"><ele>417.4</ele><time>2026-04-12T10:48:08.549Z</time></trkpt><trkpt lat="39.3812225" lon="16.0530142"><ele>418.2</ele><time>2026-04-12T10:48:10.549Z</time></trkpt><trkpt lat="39.3811834" lon="16.0529225"><ele>419.0</ele><time>2026-04-12T10:48:11.55Z</time></trkpt><trkpt lat="39.3811299" lon="16.0527737"><ele>414.3333333333333</ele><time>2026-04-12T10:48:13.549Z</time></trkpt><trkpt lat="39.3810877" lon="16.0527039"><ele>409.66666666666663</ele><time>2026-04-12T10:48:14.549Z</time></trkpt><trkpt lat="39.3810431" lon="16.0526277"><ele>405.0</ele><time>2026-04-12T10:48:15.549Z</time></trkpt><trkpt lat="39.3810008" lon="16.0525613"><ele>400.33333333333337</ele><time>2026-04-12T10:48:16.549Z</time></trkpt><trkpt lat="39.3809475" lon="16.0525143"><ele>395.6666666666667</ele><time>2026-04-12T10:48:17.548Z</time></trkpt><trkpt lat="39.3808113" lon="16.0524815"><ele>391.0</ele><time>2026-04-12T10:48:19.549Z</time></trkpt><trkpt lat="39.3807449" lon="16.0524732"><ele>391.00000000000006</ele><time>2026-04-12T10:48:20.549Z</time></trkpt><trkpt lat="39.3806692" lon="16.0524767"><ele>391.0</ele><time>2026-04-12T10:48:21.549Z</time></trkpt><trkpt lat="39.3805648" lon="16.0525094"><ele>391.0</ele><time>2026-04-12T10:48:23.55Z</time></trkpt><trkpt lat="39.3804964" lon="16.0525997"><ele>391.0</ele><time>2026-04-12T10:48:25.549Z</time></trkpt><trkpt lat="39.3804216" lon="16.0525576"><ele>391.00000000000006</ele><time>2026-04-12T10:48:29.549Z</time></trkpt><trkpt lat="39.3803521" lon="16.0525271"><ele>391.0</ele><time>2026-04-12T10:48:31.549Z</time></trkpt><trkpt lat="39.380287" lon="16.0525144"><ele>388.50000000000006</ele><time>2026-04-12T10:48:34.55Z</time></trkpt><trkpt lat="39.380206" lon="16.0525234"><ele>386.0</ele><time>2026-04-12T10:48:36.549Z</time></trkpt><trkpt lat="39.3801417" lon="16.0525321"><ele>383.5</ele><time>2026-04-12T10:48:38.549Z</time></trkpt><trkpt lat="39.3800495" lon="16.0525461"><ele>381.0</ele><time>2026-04-12T10:48:41.55Z</time></trkpt><trkpt lat="39.3799784" lon="16.0525451"><ele>378.5</ele><time>2026-04-12T10:48:43.549Z</time></trkpt><trkpt lat="39.3799014" lon="16.0525131"><ele>376.0</ele><time>2026-04-12T10:48:45.549Z</time></trkpt><trkpt lat="39.3798073" lon="16.0524725"><ele>375.5</ele><time>2026-04-12T10:48:47.549Z</time></trkpt><trkpt lat="39.3797321" lon="16.0524401"><ele>375.0</ele><time>2026-04-12T10:48:49.549Z</time></trkpt><trkpt lat="39.3796562" lon="16.0524192"><ele>374.5</ele><time>2026-04-12T10:48:51.549Z</time></trkpt><trkpt lat="39.3795655" lon="16.0523719"><ele>374.0</ele><time>2026-04-12T10:48:52.549Z</time></trkpt><trkpt lat="39.3794744" lon="16.0523338"><ele>373.5</ele><time>2026-04-12T10:48:53.549Z</time></trkpt><trkpt lat="39.3793956" lon="16.0523109"><ele>373.0</ele><time>2026-04-12T10:48:54.549Z</time></trkpt><trkpt lat="39.3793188" lon="16.0523152"><ele>373.0</ele><time>2026-04-12T10:48:55.549Z</time></trkpt><trkpt lat="39.3792331" lon="16.052307"><ele>373.0</ele><time>2026-04-12T10:48:56.548Z</time></trkpt><trkpt lat="39.3791355" lon="16.0523146"><ele>373.0</ele><time>2026-04-12T10:48:57.549Z</time></trkpt><trkpt lat="39.3790504" lon="16.0523278"><ele>373.0</ele><time>2026-04-12T10:48:58.549Z</time></trkpt><trkpt lat="39.3789777" lon="16.0523378"><ele>373.0</ele><time>2026-04-12T10:48:59.549Z</time></trkpt><trkpt lat="39.3789" lon="16.0523371"><ele>373.0</ele><time>2026-04-12T10:49:00.549Z</time></trkpt><trkpt lat="39.3788312" lon="16.0523163"><ele>370.0</ele><time>2026-04-12T10:49:01.549Z</time></trkpt><trkpt lat="39.3787612" lon="16.0522914"><ele>367.0</ele><time>2026-04-12T10:49:02.549Z</time></trkpt><trkpt lat="39.3786944" lon="16.052265"><ele>364.0</ele><time>2026-04-12T10:49:03.55Z</time></trkpt><trkpt lat="39.3786447" lon="16.05219"><ele>361.0</ele><time>2026-04-12T10:49:04.549Z</time></trkpt><trkpt lat="39.3785918" lon="16.0521163"><ele>358.0</ele><time>2026-04-12T10:49:05.549Z</time></trkpt><trkpt lat="39.3785242" lon="16.0520688"><ele>355.0</ele><time>2026-04-12T10:49:06.549Z</time></trkpt><trkpt lat="39.3784471" lon="16.0520222"><ele>355.0</ele><time>2026-04-12T10:49:07.549Z</time></trkpt><trkpt lat="39.378384" lon="16.0520152"><ele>355.0</ele><time>2026-04-12T10:49:08.549Z</time></trkpt><trkpt lat="39.3782649" lon="16.0520038"><ele>355.0</ele><time>2026-04-12T10:49:10.549Z</time></trkpt><trkpt lat="39.3781916" lon="16.0519794"><ele>355.0</ele><time>2026-04-12T10:49:12.549Z</time></trkpt><trkpt lat="39.3781694" lon="16.0520635"><ele>355.0</ele><time>2026-04-12T10:49:46.549Z</time></trkpt><trkpt lat="39.3781001" lon="16.0520869"><ele>355.0</ele><time>2026-04-12T10:49:55.549Z</time></trkpt><trkpt lat="39.378048" lon="16.0521403"><ele>353.3333333333333</ele><time>2026-04-12T10:50:36.549Z</time></trkpt><trkpt lat="39.3779812" lon="16.0521827"><ele>351.66666666666663</ele><time>2026-04-12T10:50:40.55Z</time></trkpt><trkpt lat="39.3779108" lon="16.052212"><ele>350.0</ele><time>2026-04-12T10:50:48.549Z</time></trkpt><trkpt lat="39.3778361" lon="16.0522354"><ele>348.3333333333333</ele><time>2026-04-12T10:50:53.549Z</time></trkpt><trkpt lat="39.3777596" lon="16.0522652"><ele>346.6666666666667</ele><time>2026-04-12T10:50:57.549Z</time></trkpt><trkpt lat="39.3776935" lon="16.0523076"><ele>345.0</ele><time>2026-04-12T10:51:00.549Z</time></trkpt><trkpt lat="39.377599" lon="16.0523328"><ele>345.0</ele><time>2026-04-12T10:51:03.549Z</time></trkpt><trkpt lat="39.3774907" lon="16.0523797"><ele>345.0</ele><time>2026-04-12T10:51:05.548Z</time></trkpt><trkpt lat="39.3774133" lon="16.0524542"><ele>345.0</ele><time>2026-04-12T10:51:07.549Z</time></trkpt><trkpt lat="39.3773099" lon="16.0524846"><ele>345.0</ele><time>2026-04-12T10:51:09.549Z</time></trkpt><trkpt lat="39.3772458" lon="16.0524983"><ele>345.0</ele><time>2026-04-12T10:51:12.549Z</time></trkpt><trkpt lat="39.3771899" lon="16.0525465"><ele>345.0</ele><time>2026-04-12T10:51:16.55Z</time></trkpt><trkpt lat="39.3771384" lon="16.0525997"><ele>339.3333333333333</ele><time>2026-04-12T10:51:20.549Z</time></trkpt><trkpt lat="39.3770574" lon="16.0526263"><ele>333.6666666666667</ele><time>2026-04-12T10:51:24.549Z</time></trkpt><trkpt lat="39.3769834" lon="16.0526514"><ele>328.0</ele><time>2026-04-12T10:51:27.549Z</time></trkpt><trkpt lat="39.376888" lon="16.0526809"><ele>322.33333333333337</ele><time>2026-04-12T10:51:30.549Z</time></trkpt><trkpt lat="39.3768116" lon="16.0527187"><ele>316.6666666666667</ele><time>2026-04-12T10:51:33.549Z</time></trkpt><trkpt lat="39.3767541" lon="16.0527601"><ele>311.0</ele><time>2026-04-12T10:51:35.549Z</time></trkpt><trkpt lat="39.3766776" lon="16.0527869"><ele>311.0</ele><time>2026-04-12T10:51:37.549Z</time></trkpt><trkpt lat="39.3766037" lon="16.0527988"><ele>311.0</ele><time>2026-04-12T10:51:39.549Z</time></trkpt><trkpt lat="39.3765179" lon="16.0527768"><ele>311.0</ele><time>2026-04-12T10:51:41.549Z</time></trkpt><trkpt lat="39.3764489" lon="16.0527546"><ele>311.0</ele><time>2026-04-12T10:51:43.549Z</time></trkpt><trkpt lat="39.376377" lon="16.0527261"><ele>311.0</ele><time>2026-04-12T10:51:46.548Z</time></trkpt><trkpt lat="39.3763059" lon="16.0526944"><ele>311.0</ele><time>2026-04-12T10:52:26.549Z</time></trkpt><trkpt lat="39.376241" lon="16.0526919"><ele>311.0</ele><time>2026-04-12T10:56:30.55Z</time></trkpt><trkpt lat="39.376227" lon="16.0527762"><ele>307.1666666666667</ele><time>2026-04-12T10:58:57.55Z</time></trkpt><trkpt lat="39.3761643" lon="16.0527976"><ele>303.33333333333337</ele><time>2026-04-12T10:59:06.55Z</time></trkpt><trkpt lat="39.3761034" lon="16.0527542"><ele>299.5</ele><time>2026-04-12T10:59:35.55Z</time></trkpt><trkpt lat="39.3760362" lon="16.0526832"><ele>295.6666666666667</ele><time>2026-04-12T10:59:38.55Z</time></trkpt><trkpt lat="39.3759743" lon="16.0526485"><ele>291.8333333333333</ele><time>2026-04-12T10:59:40.55Z</time></trkpt><trkpt lat="39.3758751" lon="16.0526261"><ele>288.0</ele><time>2026-04-12T10:59:42.55Z</time></trkpt><trkpt lat="39.3757653" lon="16.0525908"><ele>288.0</ele><time>2026-04-12T10:59:44.55Z</time></trkpt><trkpt lat="39.3756394" lon="16.0525937"><ele>288.0</ele><time>2026-04-12T10:59:46.549Z</time></trkpt><trkpt lat="39.3755531" lon="16.0525778"><ele>288.0</ele><time>2026-04-12T10:59:48.55Z</time></trkpt><trkpt lat="39.3754601" lon="16.0525327"><ele>288.0</ele><time>2026-04-12T10:59:50.55Z</time></trkpt><trkpt lat="39.375355" lon="16.0524664"><ele>288.0</ele><time>2026-04-12T10:59:52.55Z</time></trkpt><trkpt lat="39.3753015" lon="16.0524228"><ele>286.14285714285717</ele><time>2026-04-12T10:59:53.55Z</time></trkpt><trkpt lat="39.3752495" lon="16.0523741"><ele>284.2857142857143</ele><time>2026-04-12T10:59:54.55Z</time></trkpt><trkpt lat="39.3752028" lon="16.0522999"><ele>282.42857142857144</ele><time>2026-04-12T10:59:55.55Z</time></trkpt><trkpt lat="39.375155" lon="16.0522262"><ele>280.57142857142856</ele><time>2026-04-12T10:59:56.55Z</time></trkpt><trkpt lat="39.3751046" lon="16.0521484"><ele>278.7142857142857</ele><time>2026-04-12T10:59:57.55Z</time></trkpt><trkpt lat="39.3750504" lon="16.0520833"><ele>276.8571428571429</ele><time>2026-04-12T10:59:58.55Z</time></trkpt><trkpt lat="39.3750009" lon="16.0520089"><ele>275.0</ele><time>2026-04-12T10:59:59.55Z</time></trkpt><trkpt lat="39.3749487" lon="16.0519426"><ele>275.0</ele><time>2026-04-12T11:00:00.55Z</time></trkpt><trkpt lat="39.3748915" lon="16.051893"><ele>275.0</ele><time>2026-04-12T11:00:01.551Z</time></trkpt><trkpt lat="39.3747817" lon="16.0518246"><ele>275.0</ele><time>2026-04-12T11:00:03.55Z</time></trkpt><trkpt lat="39.3747211" lon="16.0517963"><ele>275.0</ele><time>2026-04-12T11:00:04.55Z</time></trkpt><trkpt lat="39.3746573" lon="16.0517797"><ele>275.0</ele><time>2026-04-12T11:00:05.551Z</time></trkpt><trkpt lat="39.3745907" lon="16.0517626"><ele>275.0</ele><time>2026-04-12T11:00:06.55Z</time></trkpt><trkpt lat="39.3745226" lon="16.0517497"><ele>273.33333333333337</ele><time>2026-04-12T11:00:07.55Z</time></trkpt><trkpt lat="39.3744495" lon="16.0517343"><ele>271.6666666666667</ele><time>2026-04-12T11:00:08.55Z</time></trkpt><trkpt lat="39.3743745" lon="16.0517072"><ele>270.0</ele><time>2026-04-12T11:00:09.549Z</time></trkpt><trkpt lat="39.3742983" lon="16.0516576"><ele>268.3333333333333</ele><time>2026-04-12T11:00:10.551Z</time></trkpt><trkpt lat="39.3742211" lon="16.0515972"><ele>266.66666666666663</ele><time>2026-04-12T11:00:11.55Z</time></trkpt><trkpt lat="39.3741418" lon="16.0515372"><ele>265.0</ele><time>2026-04-12T11:00:12.55Z</time></trkpt><trkpt lat="39.374055" lon="16.0514696"><ele>263.6</ele><time>2026-04-12T11:00:13.55Z</time></trkpt><trkpt lat="39.3739712" lon="16.0513927"><ele>262.2</ele><time>2026-04-12T11:00:14.55Z</time></trkpt><trkpt lat="39.3738871" lon="16.0513117"><ele>260.8</ele><time>2026-04-12T11:00:15.55Z</time></trkpt><trkpt lat="39.3738003" lon="16.0512224"><ele>259.4</ele><time>2026-04-12T11:00:16.55Z</time></trkpt><trkpt lat="39.3737136" lon="16.0511431"><ele>258.0</ele><time>2026-04-12T11:00:17.55Z</time></trkpt><trkpt lat="39.3736268" lon="16.0510802"><ele>257.5</ele><time>2026-04-12T11:00:18.551Z</time></trkpt><trkpt lat="39.3735496" lon="16.0510094"><ele>257.0</ele><time>2026-04-12T11:00:19.55Z</time></trkpt><trkpt lat="39.3734793" lon="16.0509289"><ele>256.5</ele><time>2026-04-12T11:00:20.55Z</time></trkpt><trkpt lat="39.3734226" lon="16.0508457"><ele>256.0</ele><time>2026-04-12T11:00:21.551Z</time></trkpt><trkpt lat="39.3733767" lon="16.0507572"><ele>255.5</ele><time>2026-04-12T11:00:22.55Z</time></trkpt><trkpt lat="39.3733476" lon="16.0506616"><ele>255.0</ele><time>2026-04-12T11:00:23.55Z</time></trkpt><trkpt lat="39.3733371" lon="16.0505683"><ele>253.71428571428572</ele><time>2026-04-12T11:00:24.551Z</time></trkpt><trkpt lat="39.3733447" lon="16.0504855"><ele>252.42857142857144</ele><time>2026-04-12T11:00:25.55Z</time></trkpt><trkpt lat="39.3733452" lon="16.0503879"><ele>251.14285714285717</ele><time>2026-04-12T11:00:26.55Z</time></trkpt><trkpt lat="39.373329" lon="16.0502995"><ele>249.8571428571429</ele><time>2026-04-12T11:00:27.55Z</time></trkpt><trkpt lat="39.3733154" lon="16.0502104"><ele>248.57142857142858</ele><time>2026-04-12T11:00:28.55Z</time></trkpt><trkpt lat="39.3732963" lon="16.0501209"><ele>247.28571428571433</ele><time>2026-04-12T11:00:29.551Z</time></trkpt><trkpt lat="39.3732638" lon="16.0500336"><ele>246.00000000000003</ele><time>2026-04-12T11:00:30.55Z</time></trkpt><trkpt lat="39.3732122" lon="16.0499475"><ele>245.66666666666666</ele><time>2026-04-12T11:00:31.551Z</time></trkpt><trkpt lat="39.3731513" lon="16.0498688"><ele>245.33333333333331</ele><time>2026-04-12T11:00:32.55Z</time></trkpt><trkpt lat="39.3730928" lon="16.0497862"><ele>245.0</ele><time>2026-04-12T11:00:33.55Z</time></trkpt><trkpt lat="39.373033" lon="16.0496885"><ele>244.66666666666666</ele><time>2026-04-12T11:00:34.55Z</time></trkpt><trkpt lat="39.3729826" lon="16.0495992"><ele>244.33333333333331</ele><time>2026-04-12T11:00:35.55Z</time></trkpt><trkpt lat="39.3729467" lon="16.0495244"><ele>244.0</ele><time>2026-04-12T11:00:36.55Z</time></trkpt><trkpt lat="39.3729112" lon="16.0493805"><ele>241.49999999999997</ele><time>2026-04-12T11:00:38.549Z</time></trkpt><trkpt lat="39.3728889" lon="16.0492724"><ele>239.0</ele><time>2026-04-12T11:00:40.551Z</time></trkpt><trkpt lat="39.372855" lon="16.0492029"><ele>236.5</ele><time>2026-04-12T11:00:43.55Z</time></trkpt><trkpt lat="39.3728282" lon="16.049099"><ele>234.0</ele><time>2026-04-12T11:00:48.55Z</time></trkpt><trkpt lat="39.3727733" lon="16.0490377"><ele>231.49999999999997</ele><time>2026-04-12T11:00:50.55Z</time></trkpt><trkpt lat="39.3726871" lon="16.0489704"><ele>229.0</ele><time>2026-04-12T11:00:52.55Z</time></trkpt><trkpt lat="39.3726251" lon="16.0489227"><ele>228.33333333333331</ele><time>2026-04-12T11:00:53.55Z</time></trkpt><trkpt lat="39.3725321" lon="16.0488947"><ele>227.66666666666666</ele><time>2026-04-12T11:00:54.55Z</time></trkpt><trkpt lat="39.3724616" lon="16.0488666"><ele>227.0</ele><time>2026-04-12T11:00:55.55Z</time></trkpt><trkpt lat="39.3723832" lon="16.048819"><ele>226.33333333333331</ele><time>2026-04-12T11:00:56.551Z</time></trkpt><trkpt lat="39.3723076" lon="16.0487619"><ele>225.66666666666666</ele><time>2026-04-12T11:00:57.55Z</time></trkpt><trkpt lat="39.3722276" lon="16.0487011"><ele>225.0</ele><time>2026-04-12T11:00:58.55Z</time></trkpt><trkpt lat="39.3721609" lon="16.0486397"><ele>223.66666666666666</ele><time>2026-04-12T11:00:59.55Z</time></trkpt><trkpt lat="39.3720875" lon="16.0485891"><ele>222.33333333333331</ele><time>2026-04-12T11:01:00.55Z</time></trkpt><trkpt lat="39.3720252" lon="16.0485336"><ele>221.0</ele><time>2026-04-12T11:01:01.55Z</time></trkpt><trkpt lat="39.3719561" lon="16.0484868"><ele>219.66666666666666</ele><time>2026-04-12T11:01:02.551Z</time></trkpt><trkpt lat="39.3718941" lon="16.048437"><ele>218.33333333333331</ele><time>2026-04-12T11:01:03.55Z</time></trkpt><trkpt lat="39.3718057" lon="16.0483455"><ele>217.0</ele><time>2026-04-12T11:01:05.55Z</time></trkpt><trkpt lat="39.3717426" lon="16.0482984"><ele>217.49999999999997</ele><time>2026-04-12T11:01:07.549Z</time></trkpt><trkpt lat="39.3716959" lon="16.0482304"><ele>218.0</ele><time>2026-04-12T11:01:11.55Z</time></trkpt><trkpt lat="39.3716484" lon="16.0481672"><ele>218.5</ele><time>2026-04-12T11:01:17.551Z</time></trkpt><trkpt lat="39.3715967" lon="16.0481099"><ele>219.0</ele><time>2026-04-12T11:01:22.55Z</time></trkpt><trkpt lat="39.3715356" lon="16.0480649"><ele>219.49999999999997</ele><time>2026-04-12T11:01:25.549Z</time></trkpt><trkpt lat="39.3714334" lon="16.0480843"><ele>220.0</ele><time>2026-04-12T11:01:27.55Z</time></trkpt><trkpt lat="39.3713651" lon="16.0481078"><ele>217.49999999999997</ele><time>2026-04-12T11:01:28.551Z</time></trkpt><trkpt lat="39.371251" lon="16.0481462"><ele>215.0</ele><time>2026-04-12T11:01:30.55Z</time></trkpt><trkpt lat="39.3711903" lon="16.0481714"><ele>212.5</ele><time>2026-04-12T11:01:31.55Z</time></trkpt><trkpt lat="39.3711009" lon="16.0481795"><ele>210.0</ele><time>2026-04-12T11:01:33.55Z</time></trkpt><trkpt lat="39.3710199" lon="16.0481802"><ele>207.49999999999997</ele><time>2026-04-12T11:01:35.551Z</time></trkpt><trkpt lat="39.3709577" lon="16.0481398"><ele>205.0</ele><time>2026-04-12T11:01:36.55Z</time></trkpt><trkpt lat="39.3708434" lon="16.0480724"><ele>204.99999999999997</ele><time>2026-04-12T11:01:38.55Z</time></trkpt><trkpt lat="39.3707388" lon="16.0480321"><ele>205.0</ele><time>2026-04-12T11:01:40.549Z</time></trkpt><trkpt lat="39.3707037" lon="16.0479448"><ele>205.0</ele><time>2026-04-12T11:01:43.55Z</time></trkpt><trkpt lat="39.3706417" lon="16.047904"><ele>205.0</ele><time>2026-04-12T11:02:10.55Z</time></trkpt><trkpt lat="39.3705861" lon="16.0477953"><ele>204.99999999999997</ele><time>2026-04-12T11:02:13.55Z</time></trkpt><trkpt lat="39.3705368" lon="16.0477286"><ele>205.0</ele><time>2026-04-12T11:02:14.55Z</time></trkpt><trkpt lat="39.3704406" lon="16.0476089"><ele>207.2</ele><time>2026-04-12T11:02:16.55Z</time></trkpt><trkpt lat="39.3703655" lon="16.0475163"><ele>209.4</ele><time>2026-04-12T11:02:17.549Z</time></trkpt><trkpt lat="39.3702864" lon="16.0474404"><ele>211.60000000000002</ele><time>2026-04-12T11:02:18.55Z</time></trkpt><trkpt lat="39.3702025" lon="16.0473517"><ele>213.8</ele><time>2026-04-12T11:02:19.55Z</time></trkpt><trkpt lat="39.3701179" lon="16.0472619"><ele>216.0</ele><time>2026-04-12T11:02:20.55Z</time></trkpt><trkpt lat="39.3700371" lon="16.0471896"><ele>214.5</ele><time>2026-04-12T11:02:21.55Z</time></trkpt><trkpt lat="39.3699609" lon="16.0471244"><ele>213.0</ele><time>2026-04-12T11:02:22.551Z</time></trkpt><trkpt lat="39.3698935" lon="16.0470658"><ele>211.5</ele><time>2026-04-12T11:02:23.55Z</time></trkpt><trkpt lat="39.3698274" lon="16.0470217"><ele>210.0</ele><time>2026-04-12T11:02:24.55Z</time></trkpt><trkpt lat="39.3697605" lon="16.0469949"><ele>208.5</ele><time>2026-04-12T11:02:25.55Z</time></trkpt><trkpt lat="39.3696991" lon="16.0469767"><ele>207.0</ele><time>2026-04-12T11:02:26.55Z</time></trkpt><trkpt lat="39.3696093" lon="16.0470094"><ele>207.0</ele><time>2026-04-12T11:02:28.55Z</time></trkpt><trkpt lat="39.369501" lon="16.0469774"><ele>207.0</ele><time>2026-04-12T11:02:30.55Z</time></trkpt><trkpt lat="39.3694116" lon="16.0468846"><ele>207.0</ele><time>2026-04-12T11:02:31.55Z</time></trkpt><trkpt lat="39.3692805" lon="16.0468031"><ele>207.0</ele><time>2026-04-12T11:02:32.55Z</time></trkpt><trkpt lat="39.3692009" lon="16.0467372"><ele>207.0</ele><time>2026-04-12T11:02:33.55Z</time></trkpt><trkpt lat="39.3691114" lon="16.0466774"><ele>207.0</ele><time>2026-04-12T11:02:34.55Z</time></trkpt><trkpt lat="39.369019" lon="16.0466127"><ele>207.0</ele><time>2026-04-12T11:02:35.55Z</time></trkpt><trkpt lat="39.3689052" lon="16.0465037"><ele>207.0</ele><time>2026-04-12T11:02:36.55Z</time></trkpt><trkpt lat="39.368783" lon="16.0464219"><ele>207.5</ele><time>2026-04-12T11:02:37.55Z</time></trkpt><trkpt lat="39.3686557" lon="16.0462784"><ele>208.0</ele><time>2026-04-12T11:02:38.55Z</time></trkpt><trkpt lat="39.3685586" lon="16.0462028"><ele>208.5</ele><time>2026-04-12T11:02:39.55Z</time></trkpt><trkpt lat="39.3684702" lon="16.0461339"><ele>209.0</ele><time>2026-04-12T11:02:40.55Z</time></trkpt><trkpt lat="39.3683882" lon="16.046086"><ele>209.00000000000003</ele><time>2026-04-12T11:02:41.55Z</time></trkpt><trkpt lat="39.3683257" lon="16.0460484"><ele>209.0</ele><time>2026-04-12T11:02:42.55Z</time></trkpt><trkpt lat="39.3682857" lon="16.0459552"><ele>209.0</ele><time>2026-04-12T11:02:43.55Z</time></trkpt><trkpt lat="39.3682262" lon="16.045887"><ele>209.0</ele><time>2026-04-12T11:02:44.551Z</time></trkpt><trkpt lat="39.3681741" lon="16.0457958"><ele>209.00000000000003</ele><time>2026-04-12T11:02:45.55Z</time></trkpt><trkpt lat="39.3681347" lon="16.0457018"><ele>209.0</ele><time>2026-04-12T11:02:46.55Z</time></trkpt><trkpt lat="39.3680884" lon="16.0456088"><ele>209.33333333333334</ele><time>2026-04-12T11:02:47.55Z</time></trkpt><trkpt lat="39.3680329" lon="16.0455179"><ele>209.66666666666669</ele><time>2026-04-12T11:02:48.549Z</time></trkpt><trkpt lat="39.3679899" lon="16.0454075"><ele>210.0</ele><time>2026-04-12T11:02:49.55Z</time></trkpt><trkpt lat="39.3679617" lon="16.0453075"><ele>210.33333333333331</ele><time>2026-04-12T11:02:50.55Z</time></trkpt><trkpt lat="39.3679353" lon="16.0452273"><ele>210.66666666666666</ele><time>2026-04-12T11:02:51.55Z</time></trkpt><trkpt lat="39.3679075" lon="16.0451468"><ele>211.0</ele><time>2026-04-12T11:02:52.55Z</time></trkpt><trkpt lat="39.367871" lon="16.0450702"><ele>210.99999999999997</ele><time>2026-04-12T11:02:53.551Z</time></trkpt><trkpt lat="39.3678097" lon="16.0450227"><ele>211.0</ele><time>2026-04-12T11:02:54.55Z</time></trkpt><trkpt lat="39.3677457" lon="16.0450088"><ele>211.0</ele><time>2026-04-12T11:02:55.551Z</time></trkpt><trkpt lat="39.3676447" lon="16.0449631"><ele>211.0</ele><time>2026-04-12T11:02:57.55Z</time></trkpt><trkpt lat="39.367568" lon="16.0449379"><ele>210.99999999999997</ele><time>2026-04-12T11:02:58.55Z</time></trkpt><trkpt lat="39.3674869" lon="16.0449111"><ele>211.0</ele><time>2026-04-12T11:02:59.55Z</time></trkpt><trkpt lat="39.3674086" lon="16.0448963"><ele>206.0</ele><time>2026-04-12T11:03:00.549Z</time></trkpt><trkpt lat="39.3673275" lon="16.0448886"><ele>201.0</ele><time>2026-04-12T11:03:01.55Z</time></trkpt><trkpt lat="39.3672487" lon="16.0448863"><ele>196.0</ele><time>2026-04-12T11:03:02.55Z</time></trkpt><trkpt lat="39.3671752" lon="16.0448796"><ele>191.0</ele><time>2026-04-12T11:03:03.55Z</time></trkpt><trkpt lat="39.3671054" lon="16.0448788"><ele>186.0</ele><time>2026-04-12T11:03:04.551Z</time></trkpt><trkpt lat="39.3670406" lon="16.0448896"><ele>181.0</ele><time>2026-04-12T11:03:05.55Z</time></trkpt><trkpt lat="39.3669714" lon="16.0448977"><ele>176.0</ele><time>2026-04-12T11:03:06.55Z</time></trkpt><trkpt lat="39.3669078" lon="16.0449104"><ele>174.60000000000002</ele><time>2026-04-12T11:03:07.551Z</time></trkpt><trkpt lat="39.3667905" lon="16.0448974"><ele>173.2</ele><time>2026-04-12T11:03:09.549Z</time></trkpt><trkpt lat="39.3666696" lon="16.044896"><ele>171.8</ele><time>2026-04-12T11:03:11.55Z</time></trkpt><trkpt lat="39.3666042" lon="16.04489"><ele>170.39999999999998</ele><time>2026-04-12T11:03:12.551Z</time></trkpt><trkpt lat="39.3665323" lon="16.0448871"><ele>169.0</ele><time>2026-04-12T11:03:13.55Z</time></trkpt><trkpt lat="39.3664578" lon="16.0448937"><ele>166.6</ele><time>2026-04-12T11:03:14.55Z</time></trkpt><trkpt lat="39.3663426" lon="16.0449055"><ele>164.2</ele><time>2026-04-12T11:03:16.549Z</time></trkpt><trkpt lat="39.366251" lon="16.0448895"><ele>161.79999999999998</ele><time>2026-04-12T11:03:18.55Z</time></trkpt><trkpt lat="39.3661885" lon="16.044839"><ele>159.39999999999998</ele><time>2026-04-12T11:03:21.551Z</time></trkpt><trkpt lat="39.3661025" lon="16.0448187"><ele>157.0</ele><time>2026-04-12T11:03:25.55Z</time></trkpt><trkpt lat="39.3660082" lon="16.044842"><ele>157.0</ele><time>2026-04-12T11:03:27.55Z</time></trkpt><trkpt lat="39.3658982" lon="16.0448795"><ele>157.0</ele><time>2026-04-12T11:03:29.55Z</time></trkpt><trkpt lat="39.365801" lon="16.0448981"><ele>157.0</ele><time>2026-04-12T11:03:31.55Z</time></trkpt><trkpt lat="39.3657307" lon="16.0449238"><ele>157.0</ele><time>2026-04-12T11:03:33.55Z</time></trkpt><trkpt lat="39.3656885" lon="16.0448556"><ele>157.0</ele><time>2026-04-12T11:03:35.55Z</time></trkpt><trkpt lat="39.36571" lon="16.0447677"><ele>157.0</ele><time>2026-04-12T11:03:37.55Z</time></trkpt><trkpt lat="39.3658207" lon="16.0447394"><ele>157.0</ele><time>2026-04-12T11:03:39.55Z</time></trkpt><trkpt lat="39.3659154" lon="16.0446923"><ele>157.0</ele><time>2026-04-12T11:03:41.551Z</time></trkpt><trkpt lat="39.3659645" lon="16.0446057"><ele>157.0</ele><time>2026-04-12T11:03:44.55Z</time></trkpt><trkpt lat="39.3659967" lon="16.0445285"><ele>157.0</ele><time>2026-04-12T11:03:46.551Z</time></trkpt><trkpt lat="39.3661126" lon="16.0444959"><ele>157.0</ele><time>2026-04-12T11:03:48.55Z</time></trkpt><trkpt lat="39.3661844" lon="16.0444788"><ele>157.0</ele><time>2026-04-12T11:03:49.55Z</time></trkpt><trkpt lat="39.3662985" lon="16.0444471"><ele>157.0</ele><time>2026-04-12T11:03:51.55Z</time></trkpt><trkpt lat="39.366356" lon="16.0444131"><ele>157.0</ele><time>2026-04-12T11:03:52.55Z</time></trkpt><trkpt lat="39.3664567" lon="16.0444006"><ele>157.0</ele><time>2026-04-12T11:03:54.551Z</time></trkpt><trkpt lat="39.3665527" lon="16.0444159"><ele>157.0</ele><time>2026-04-12T11:03:56.55Z</time></trkpt><trkpt lat="39.3666773" lon="16.0444322"><ele>157.0</ele><time>2026-04-12T11:03:58.55Z</time></trkpt><trkpt lat="39.3667402" lon="16.0444546"><ele>159.0</ele><time>2026-04-12T11:03:59.549Z</time></trkpt><trkpt lat="39.3668048" lon="16.044467"><ele>161.0</ele><time>2026-04-12T11:04:00.55Z</time></trkpt><trkpt lat="39.3668847" lon="16.0444776"><ele>163.0</ele><time>2026-04-12T11:04:02.551Z</time></trkpt><trkpt lat="39.3669447" lon="16.0444212"><ele>165.0</ele><time>2026-04-12T11:04:05.55Z</time></trkpt><trkpt lat="39.3670461" lon="16.0444379"><ele>167.0</ele><time>2026-04-12T11:04:08.55Z</time></trkpt><trkpt lat="39.3671346" lon="16.0444393"><ele>169.0</ele><time>2026-04-12T11:04:10.55Z</time></trkpt><trkpt lat="39.3672064" lon="16.044435"><ele>170.16666666666669</ele><time>2026-04-12T11:04:12.549Z</time></trkpt><trkpt lat="39.3672851" lon="16.0444435"><ele>171.33333333333334</ele><time>2026-04-12T11:04:14.55Z</time></trkpt><trkpt lat="39.3673691" lon="16.0444365"><ele>172.5</ele><time>2026-04-12T11:04:17.55Z</time></trkpt><trkpt lat="39.3674419" lon="16.0444319"><ele>173.66666666666666</ele><time>2026-04-12T11:04:21.551Z</time></trkpt><trkpt lat="39.3675062" lon="16.0444318"><ele>174.83333333333331</ele><time>2026-04-12T11:04:24.55Z</time></trkpt><trkpt lat="39.3675941" lon="16.044447"><ele>176.0</ele><time>2026-04-12T11:04:27.55Z</time></trkpt><trkpt lat="39.3676565" lon="16.0444592"><ele>176.0</ele><time>2026-04-12T11:04:30.551Z</time></trkpt><trkpt lat="39.3677279" lon="16.0444693"><ele>176.0</ele><time>2026-04-12T11:04:33.55Z</time></trkpt><trkpt lat="39.3677944" lon="16.0444852"><ele>176.0</ele><time>2026-04-12T11:04:36.55Z</time></trkpt><trkpt lat="39.3678391" lon="16.044409"><ele>176.0</ele><time>2026-04-12T11:04:41.55Z</time></trkpt><trkpt lat="39.3678913" lon="16.0443376"><ele>176.0</ele><time>2026-04-12T11:04:46.551Z</time></trkpt><trkpt lat="39.3679356" lon="16.0443997"><ele>176.0</ele><time>2026-04-12T11:04:51.549Z</time></trkpt><trkpt lat="39.3679828" lon="16.0444735"><ele>176.0</ele><time>2026-04-12T11:04:55.549Z</time></trkpt><trkpt lat="39.36805" lon="16.0445118"><ele>166.0</ele><time>2026-04-12T11:04:59.55Z</time></trkpt></trkseg></trk></gpx>